<?xml version="1.0"?>
<gpx xmlns="http://www.topografix.com/GPX/1/1" version="1.1" creator="afstandmeten.nl" xmlns:xsi="http://www.w3.org/2001/XMLSchema-instance" xsi:schemaLocation="http://www.topografix.com/GPX/1/1 http://www.topografix.com/GPX/1/1/gpx.xsd">
  <trk>
    <name>rondje Banaan via tunnel</name>
    <desc/>
    <trkseg>
      <trkpt lat="51.8380315" lon="4.1545057">
        <ele>0.00000</ele>
        <time>2026-05-03T00:00:00Z</time>
      </trkpt>
      <trkpt lat="51.838682" lon="4.153592">
        <ele>0.00000</ele>
        <time>2026-05-03T00:00:04Z</time>
      </trkpt>
      <trkpt lat="51.838715" lon="4.15323">
        <ele>0.00000</ele>
        <time>2026-05-03T00:00:04Z</time>
      </trkpt>
      <trkpt lat="51.838891" lon="4.153037">
        <ele>0.00000</ele>
        <time>2026-05-03T00:00:05Z</time>
      </trkpt>
      <trkpt lat="51.839004" lon="4.153409">
        <ele>0.00000</ele>
        <time>2026-05-03T00:00:06Z</time>
      </trkpt>
      <trkpt lat="51.839289" lon="4.15478">
        <ele>0.00000</ele>
        <time>2026-05-03T00:00:09Z</time>
      </trkpt>
      <trkpt lat="51.839289" lon="4.15478">
        <ele>0.00000</ele>
        <time>2026-05-03T00:00:09Z</time>
      </trkpt>
      <trkpt lat="51.839292" lon="4.154887">
        <ele>0.00000</ele>
        <time>2026-05-03T00:00:10Z</time>
      </trkpt>
      <trkpt lat="51.839194" lon="4.155044">
        <ele>0.00000</ele>
        <time>2026-05-03T00:00:10Z</time>
      </trkpt>
      <trkpt lat="51.838311" lon="4.155599">
        <ele>0.00000</ele>
        <time>2026-05-03T00:00:14Z</time>
      </trkpt>
      <trkpt lat="51.837807" lon="4.156118">
        <ele>0.00000</ele>
        <time>2026-05-03T00:00:16Z</time>
      </trkpt>
      <trkpt lat="51.837923" lon="4.156396">
        <ele>0.00000</ele>
        <time>2026-05-03T00:00:17Z</time>
      </trkpt>
      <trkpt lat="51.837935" lon="4.156725">
        <ele>0.00000</ele>
        <time>2026-05-03T00:00:17Z</time>
      </trkpt>
      <trkpt lat="51.837988" lon="4.15685">
        <ele>0.00000</ele>
        <time>2026-05-03T00:00:18Z</time>
      </trkpt>
      <trkpt lat="51.837988" lon="4.15685">
        <ele>0.00000</ele>
        <time>2026-05-03T00:00:18Z</time>
      </trkpt>
      <trkpt lat="51.841405" lon="4.164958">
        <ele>0.00000</ele>
        <time>2026-05-03T00:00:40Z</time>
      </trkpt>
      <trkpt lat="51.842663" lon="4.167441">
        <ele>0.00000</ele>
        <time>2026-05-03T00:00:47Z</time>
      </trkpt>
      <trkpt lat="51.844012" lon="4.170991">
        <ele>0.00000</ele>
        <time>2026-05-03T00:00:57Z</time>
      </trkpt>
      <trkpt lat="51.845371" lon="4.174163">
        <ele>0.00000</ele>
        <time>2026-05-03T00:01:05Z</time>
      </trkpt>
      <trkpt lat="51.846028" lon="4.175326">
        <ele>0.00000</ele>
        <time>2026-05-03T00:01:09Z</time>
      </trkpt>
      <trkpt lat="51.847794" lon="4.179764">
        <ele>0.00000</ele>
        <time>2026-05-03T00:01:21Z</time>
      </trkpt>
      <trkpt lat="51.847794" lon="4.179764">
        <ele>0.00000</ele>
        <time>2026-05-03T00:01:21Z</time>
      </trkpt>
      <trkpt lat="51.849747" lon="4.184346">
        <ele>0.00000</ele>
        <time>2026-05-03T00:01:33Z</time>
      </trkpt>
      <trkpt lat="51.850423" lon="4.185714">
        <ele>0.00000</ele>
        <time>2026-05-03T00:01:37Z</time>
      </trkpt>
      <trkpt lat="51.850632" lon="4.18638">
        <ele>0.00000</ele>
        <time>2026-05-03T00:01:39Z</time>
      </trkpt>
      <trkpt lat="51.85419" lon="4.194606">
        <ele>0.00000</ele>
        <time>2026-05-03T00:02:02Z</time>
      </trkpt>
      <trkpt lat="51.854542" lon="4.195528">
        <ele>0.00000</ele>
        <time>2026-05-03T00:02:04Z</time>
      </trkpt>
      <trkpt lat="51.855319" lon="4.19726">
        <ele>0.00000</ele>
        <time>2026-05-03T00:02:09Z</time>
      </trkpt>
      <trkpt lat="51.856068" lon="4.198592">
        <ele>0.00000</ele>
        <time>2026-05-03T00:02:13Z</time>
      </trkpt>
      <trkpt lat="51.856266" lon="4.199204">
        <ele>0.00000</ele>
        <time>2026-05-03T00:02:15Z</time>
      </trkpt>
      <trkpt lat="51.856266" lon="4.199204">
        <ele>0.00000</ele>
        <time>2026-05-03T00:02:15Z</time>
      </trkpt>
      <trkpt lat="51.856664" lon="4.200417">
        <ele>0.00000</ele>
        <time>2026-05-03T00:02:18Z</time>
      </trkpt>
      <trkpt lat="51.864361" lon="4.21828">
        <ele>0.00000</ele>
        <time>2026-05-03T00:03:07Z</time>
      </trkpt>
      <trkpt lat="51.86665" lon="4.22344">
        <ele>0.00000</ele>
        <time>2026-05-03T00:03:22Z</time>
      </trkpt>
      <trkpt lat="51.86707" lon="4.22394">
        <ele>0.00000</ele>
        <time>2026-05-03T00:03:23Z</time>
      </trkpt>
      <trkpt lat="51.86726" lon="4.22422">
        <ele>0.00000</ele>
        <time>2026-05-03T00:03:24Z</time>
      </trkpt>
      <trkpt lat="51.86746" lon="4.22464">
        <ele>0.00000</ele>
        <time>2026-05-03T00:03:26Z</time>
      </trkpt>
      <trkpt lat="51.86756" lon="4.22479">
        <ele>0.00000</ele>
        <time>2026-05-03T00:03:26Z</time>
      </trkpt>
      <trkpt lat="51.86764" lon="4.22499">
        <ele>0.00000</ele>
        <time>2026-05-03T00:03:27Z</time>
      </trkpt>
      <trkpt lat="51.8675" lon="4.22515">
        <ele>0.00000</ele>
        <time>2026-05-03T00:03:27Z</time>
      </trkpt>
      <trkpt lat="51.86745" lon="4.22521">
        <ele>0.00000</ele>
        <time>2026-05-03T00:03:27Z</time>
      </trkpt>
      <trkpt lat="51.86748" lon="4.22531">
        <ele>0.00000</ele>
        <time>2026-05-03T00:03:28Z</time>
      </trkpt>
      <trkpt lat="51.86761" lon="4.22556">
        <ele>0.00000</ele>
        <time>2026-05-03T00:03:28Z</time>
      </trkpt>
      <trkpt lat="51.86773" lon="4.22576">
        <ele>0.00000</ele>
        <time>2026-05-03T00:03:29Z</time>
      </trkpt>
      <trkpt lat="51.8679" lon="4.22607">
        <ele>0.00000</ele>
        <time>2026-05-03T00:03:30Z</time>
      </trkpt>
      <trkpt lat="51.86837" lon="4.22674">
        <ele>0.00000</ele>
        <time>2026-05-03T00:03:32Z</time>
      </trkpt>
      <trkpt lat="51.86853" lon="4.22709">
        <ele>0.00000</ele>
        <time>2026-05-03T00:03:33Z</time>
      </trkpt>
      <trkpt lat="51.8694" lon="4.22915">
        <ele>0.00000</ele>
        <time>2026-05-03T00:03:39Z</time>
      </trkpt>
      <trkpt lat="51.86985" lon="4.23021">
        <ele>0.00000</ele>
        <time>2026-05-03T00:03:42Z</time>
      </trkpt>
      <trkpt lat="51.86985" lon="4.23021">
        <ele>0.00000</ele>
        <time>2026-05-03T00:03:42Z</time>
      </trkpt>
      <trkpt lat="51.87036" lon="4.2314">
        <ele>0.00000</ele>
        <time>2026-05-03T00:03:45Z</time>
      </trkpt>
      <trkpt lat="51.87041" lon="4.23159">
        <ele>0.00000</ele>
        <time>2026-05-03T00:03:46Z</time>
      </trkpt>
      <trkpt lat="51.86983" lon="4.2328">
        <ele>0.00000</ele>
        <time>2026-05-03T00:03:49Z</time>
      </trkpt>
      <trkpt lat="51.86966" lon="4.23318">
        <ele>0.00000</ele>
        <time>2026-05-03T00:03:50Z</time>
      </trkpt>
      <trkpt lat="51.8696" lon="4.23361">
        <ele>0.00000</ele>
        <time>2026-05-03T00:03:51Z</time>
      </trkpt>
      <trkpt lat="51.86961" lon="4.23424">
        <ele>0.00000</ele>
        <time>2026-05-03T00:03:53Z</time>
      </trkpt>
      <trkpt lat="51.86969" lon="4.23532">
        <ele>0.00000</ele>
        <time>2026-05-03T00:03:55Z</time>
      </trkpt>
      <trkpt lat="51.87027" lon="4.2411">
        <ele>0.00000</ele>
        <time>2026-05-03T00:04:08Z</time>
      </trkpt>
      <trkpt lat="51.87029" lon="4.24154">
        <ele>0.00000</ele>
        <time>2026-05-03T00:04:09Z</time>
      </trkpt>
      <trkpt lat="51.87027" lon="4.24179">
        <ele>0.00000</ele>
        <time>2026-05-03T00:04:10Z</time>
      </trkpt>
      <trkpt lat="51.87022" lon="4.24203">
        <ele>0.00000</ele>
        <time>2026-05-03T00:04:10Z</time>
      </trkpt>
      <trkpt lat="51.8701" lon="4.24237">
        <ele>0.00000</ele>
        <time>2026-05-03T00:04:11Z</time>
      </trkpt>
      <trkpt lat="51.8701" lon="4.24237">
        <ele>0.00000</ele>
        <time>2026-05-03T00:04:11Z</time>
      </trkpt>
      <trkpt lat="51.8695" lon="4.24421">
        <ele>0.00000</ele>
        <time>2026-05-03T00:04:16Z</time>
      </trkpt>
      <trkpt lat="51.86925" lon="4.245">
        <ele>0.00000</ele>
        <time>2026-05-03T00:04:18Z</time>
      </trkpt>
      <trkpt lat="51.86918" lon="4.24505">
        <ele>0.00000</ele>
        <time>2026-05-03T00:04:18Z</time>
      </trkpt>
      <trkpt lat="51.86902" lon="4.24504">
        <ele>0.00000</ele>
        <time>2026-05-03T00:04:19Z</time>
      </trkpt>
      <trkpt lat="51.86884" lon="4.24516">
        <ele>0.00000</ele>
        <time>2026-05-03T00:04:20Z</time>
      </trkpt>
      <trkpt lat="51.86877" lon="4.24526">
        <ele>0.00000</ele>
        <time>2026-05-03T00:04:20Z</time>
      </trkpt>
      <trkpt lat="51.86799" lon="4.24685">
        <ele>0.00000</ele>
        <time>2026-05-03T00:04:25Z</time>
      </trkpt>
      <trkpt lat="51.8675" lon="4.24779">
        <ele>0.00000</ele>
        <time>2026-05-03T00:04:27Z</time>
      </trkpt>
      <trkpt lat="51.86728" lon="4.24805">
        <ele>0.00000</ele>
        <time>2026-05-03T00:04:28Z</time>
      </trkpt>
      <trkpt lat="51.86716" lon="4.24812">
        <ele>0.00000</ele>
        <time>2026-05-03T00:04:29Z</time>
      </trkpt>
      <trkpt lat="51.86702" lon="4.24806">
        <ele>0.00000</ele>
        <time>2026-05-03T00:04:29Z</time>
      </trkpt>
      <trkpt lat="51.86656" lon="4.24777">
        <ele>0.00000</ele>
        <time>2026-05-03T00:04:31Z</time>
      </trkpt>
      <trkpt lat="51.86637" lon="4.24762">
        <ele>0.00000</ele>
        <time>2026-05-03T00:04:32Z</time>
      </trkpt>
      <trkpt lat="51.86637" lon="4.24762">
        <ele>0.00000</ele>
        <time>2026-05-03T00:04:32Z</time>
      </trkpt>
      <trkpt lat="51.86598" lon="4.2473">
        <ele>0.00000</ele>
        <time>2026-05-03T00:04:33Z</time>
      </trkpt>
      <trkpt lat="51.86552" lon="4.24675">
        <ele>0.00000</ele>
        <time>2026-05-03T00:04:36Z</time>
      </trkpt>
      <trkpt lat="51.86534" lon="4.2466">
        <ele>0.00000</ele>
        <time>2026-05-03T00:04:36Z</time>
      </trkpt>
      <trkpt lat="51.86519" lon="4.24654">
        <ele>0.00000</ele>
        <time>2026-05-03T00:04:37Z</time>
      </trkpt>
      <trkpt lat="51.86513" lon="4.24653">
        <ele>0.00000</ele>
        <time>2026-05-03T00:04:37Z</time>
      </trkpt>
      <trkpt lat="51.86506" lon="4.24663">
        <ele>0.00000</ele>
        <time>2026-05-03T00:04:37Z</time>
      </trkpt>
      <trkpt lat="51.865" lon="4.2467">
        <ele>0.00000</ele>
        <time>2026-05-03T00:04:38Z</time>
      </trkpt>
      <trkpt lat="51.86491" lon="4.24677">
        <ele>0.00000</ele>
        <time>2026-05-03T00:04:38Z</time>
      </trkpt>
      <trkpt lat="51.86464" lon="4.24695">
        <ele>0.00000</ele>
        <time>2026-05-03T00:04:39Z</time>
      </trkpt>
      <trkpt lat="51.86456" lon="4.24719">
        <ele>0.00000</ele>
        <time>2026-05-03T00:04:40Z</time>
      </trkpt>
      <trkpt lat="51.86452" lon="4.24737">
        <ele>0.00000</ele>
        <time>2026-05-03T00:04:40Z</time>
      </trkpt>
      <trkpt lat="51.86445" lon="4.24785">
        <ele>0.00000</ele>
        <time>2026-05-03T00:04:41Z</time>
      </trkpt>
      <trkpt lat="51.86427" lon="4.24876">
        <ele>0.00000</ele>
        <time>2026-05-03T00:04:43Z</time>
      </trkpt>
      <trkpt lat="51.86415" lon="4.24943">
        <ele>0.00000</ele>
        <time>2026-05-03T00:04:45Z</time>
      </trkpt>
      <trkpt lat="51.86418" lon="4.24945">
        <ele>0.00000</ele>
        <time>2026-05-03T00:04:45Z</time>
      </trkpt>
      <trkpt lat="51.86418" lon="4.24945">
        <ele>0.00000</ele>
        <time>2026-05-03T00:04:45Z</time>
      </trkpt>
      <trkpt lat="51.86513" lon="4.25006">
        <ele>0.00000</ele>
        <time>2026-05-03T00:04:49Z</time>
      </trkpt>
      <trkpt lat="51.86516" lon="4.25064">
        <ele>0.00000</ele>
        <time>2026-05-03T00:04:50Z</time>
      </trkpt>
      <trkpt lat="51.86473" lon="4.25226">
        <ele>0.00000</ele>
        <time>2026-05-03T00:04:54Z</time>
      </trkpt>
      <trkpt lat="51.86541" lon="4.25333">
        <ele>0.00000</ele>
        <time>2026-05-03T00:04:58Z</time>
      </trkpt>
      <trkpt lat="51.86598" lon="4.25495">
        <ele>0.00000</ele>
        <time>2026-05-03T00:05:02Z</time>
      </trkpt>
      <trkpt lat="51.86576" lon="4.25556">
        <ele>0.00000</ele>
        <time>2026-05-03T00:05:04Z</time>
      </trkpt>
      <trkpt lat="51.86576" lon="4.25556">
        <ele>0.00000</ele>
        <time>2026-05-03T00:05:04Z</time>
      </trkpt>
      <trkpt lat="51.86499" lon="4.25768">
        <ele>0.00000</ele>
        <time>2026-05-03T00:05:09Z</time>
      </trkpt>
      <trkpt lat="51.8642" lon="4.26036">
        <ele>0.00000</ele>
        <time>2026-05-03T00:05:16Z</time>
      </trkpt>
      <trkpt lat="51.86376" lon="4.26173">
        <ele>0.00000</ele>
        <time>2026-05-03T00:05:19Z</time>
      </trkpt>
      <trkpt lat="51.86367" lon="4.26216">
        <ele>0.00000</ele>
        <time>2026-05-03T00:05:20Z</time>
      </trkpt>
      <trkpt lat="51.8634" lon="4.2638">
        <ele>0.00000</ele>
        <time>2026-05-03T00:05:24Z</time>
      </trkpt>
      <trkpt lat="51.86324" lon="4.26514">
        <ele>0.00000</ele>
        <time>2026-05-03T00:05:27Z</time>
      </trkpt>
      <trkpt lat="51.86313" lon="4.26653">
        <ele>0.00000</ele>
        <time>2026-05-03T00:05:30Z</time>
      </trkpt>
      <trkpt lat="51.86306" lon="4.26779">
        <ele>0.00000</ele>
        <time>2026-05-03T00:05:33Z</time>
      </trkpt>
      <trkpt lat="51.86303" lon="4.26895">
        <ele>0.00000</ele>
        <time>2026-05-03T00:05:36Z</time>
      </trkpt>
      <trkpt lat="51.86303" lon="4.26895">
        <ele>0.00000</ele>
        <time>2026-05-03T00:05:36Z</time>
      </trkpt>
      <trkpt lat="51.86305" lon="4.27057">
        <ele>0.00000</ele>
        <time>2026-05-03T00:05:40Z</time>
      </trkpt>
      <trkpt lat="51.86334" lon="4.27731">
        <ele>0.00000</ele>
        <time>2026-05-03T00:05:55Z</time>
      </trkpt>
      <trkpt lat="51.86335" lon="4.27828">
        <ele>0.00000</ele>
        <time>2026-05-03T00:05:57Z</time>
      </trkpt>
      <trkpt lat="51.86333" lon="4.28029">
        <ele>0.00000</ele>
        <time>2026-05-03T00:06:02Z</time>
      </trkpt>
      <trkpt lat="51.8633" lon="4.28051">
        <ele>0.00000</ele>
        <time>2026-05-03T00:06:02Z</time>
      </trkpt>
      <trkpt lat="51.86326" lon="4.28065">
        <ele>0.00000</ele>
        <time>2026-05-03T00:06:02Z</time>
      </trkpt>
      <trkpt lat="51.8631" lon="4.2809">
        <ele>0.00000</ele>
        <time>2026-05-03T00:06:03Z</time>
      </trkpt>
      <trkpt lat="51.86296" lon="4.28112">
        <ele>0.00000</ele>
        <time>2026-05-03T00:06:04Z</time>
      </trkpt>
      <trkpt lat="51.86289" lon="4.28131">
        <ele>0.00000</ele>
        <time>2026-05-03T00:06:04Z</time>
      </trkpt>
      <trkpt lat="51.86284" lon="4.28149">
        <ele>0.00000</ele>
        <time>2026-05-03T00:06:05Z</time>
      </trkpt>
      <trkpt lat="51.86282" lon="4.28172">
        <ele>0.00000</ele>
        <time>2026-05-03T00:06:05Z</time>
      </trkpt>
      <trkpt lat="51.86284" lon="4.28205">
        <ele>0.00000</ele>
        <time>2026-05-03T00:06:06Z</time>
      </trkpt>
      <trkpt lat="51.86321" lon="4.28355">
        <ele>0.00000</ele>
        <time>2026-05-03T00:06:10Z</time>
      </trkpt>
      <trkpt lat="51.86324" lon="4.28372">
        <ele>0.00000</ele>
        <time>2026-05-03T00:06:10Z</time>
      </trkpt>
      <trkpt lat="51.86322" lon="4.2839">
        <ele>0.00000</ele>
        <time>2026-05-03T00:06:11Z</time>
      </trkpt>
      <trkpt lat="51.86322" lon="4.2839">
        <ele>0.00000</ele>
        <time>2026-05-03T00:06:11Z</time>
      </trkpt>
      <trkpt lat="51.86303" lon="4.28596">
        <ele>0.00000</ele>
        <time>2026-05-03T00:06:15Z</time>
      </trkpt>
      <trkpt lat="51.863" lon="4.28651">
        <ele>0.00000</ele>
        <time>2026-05-03T00:06:17Z</time>
      </trkpt>
      <trkpt lat="51.86299" lon="4.28778">
        <ele>0.00000</ele>
        <time>2026-05-03T00:06:19Z</time>
      </trkpt>
      <trkpt lat="51.86301" lon="4.28912">
        <ele>0.00000</ele>
        <time>2026-05-03T00:06:23Z</time>
      </trkpt>
      <trkpt lat="51.86296" lon="4.29515">
        <ele>0.00000</ele>
        <time>2026-05-03T00:06:36Z</time>
      </trkpt>
      <trkpt lat="51.86284" lon="4.29772">
        <ele>0.00000</ele>
        <time>2026-05-03T00:06:42Z</time>
      </trkpt>
      <trkpt lat="51.86288" lon="4.30264">
        <ele>0.00000</ele>
        <time>2026-05-03T00:06:53Z</time>
      </trkpt>
      <trkpt lat="51.8629" lon="4.30599">
        <ele>0.00000</ele>
        <time>2026-05-03T00:07:01Z</time>
      </trkpt>
      <trkpt lat="51.86293" lon="4.30682">
        <ele>0.00000</ele>
        <time>2026-05-03T00:07:03Z</time>
      </trkpt>
      <trkpt lat="51.86293" lon="4.30697">
        <ele>0.00000</ele>
        <time>2026-05-03T00:07:03Z</time>
      </trkpt>
      <trkpt lat="51.86293" lon="4.30697">
        <ele>0.00000</ele>
        <time>2026-05-03T00:07:03Z</time>
      </trkpt>
      <trkpt lat="51.86294" lon="4.30758">
        <ele>0.00000</ele>
        <time>2026-05-03T00:07:04Z</time>
      </trkpt>
      <trkpt lat="51.86293" lon="4.30835">
        <ele>0.00000</ele>
        <time>2026-05-03T00:07:06Z</time>
      </trkpt>
      <trkpt lat="51.86291" lon="4.31113">
        <ele>0.00000</ele>
        <time>2026-05-03T00:07:12Z</time>
      </trkpt>
      <trkpt lat="51.86288" lon="4.31136">
        <ele>0.00000</ele>
        <time>2026-05-03T00:07:13Z</time>
      </trkpt>
      <trkpt lat="51.86284" lon="4.3115">
        <ele>0.00000</ele>
        <time>2026-05-03T00:07:13Z</time>
      </trkpt>
      <trkpt lat="51.86277" lon="4.3116">
        <ele>0.00000</ele>
        <time>2026-05-03T00:07:14Z</time>
      </trkpt>
      <trkpt lat="51.86227" lon="4.31205">
        <ele>0.00000</ele>
        <time>2026-05-03T00:07:16Z</time>
      </trkpt>
      <trkpt lat="51.86244" lon="4.31289">
        <ele>0.00000</ele>
        <time>2026-05-03T00:07:18Z</time>
      </trkpt>
      <trkpt lat="51.86253" lon="4.3135">
        <ele>0.00000</ele>
        <time>2026-05-03T00:07:19Z</time>
      </trkpt>
      <trkpt lat="51.86251" lon="4.31362">
        <ele>0.00000</ele>
        <time>2026-05-03T00:07:19Z</time>
      </trkpt>
      <trkpt lat="51.86173" lon="4.31598">
        <ele>0.00000</ele>
        <time>2026-05-03T00:07:25Z</time>
      </trkpt>
      <trkpt lat="51.86149" lon="4.317">
        <ele>0.00000</ele>
        <time>2026-05-03T00:07:28Z</time>
      </trkpt>
      <trkpt lat="51.86137" lon="4.31789">
        <ele>0.00000</ele>
        <time>2026-05-03T00:07:30Z</time>
      </trkpt>
      <trkpt lat="51.86133" lon="4.31828">
        <ele>0.00000</ele>
        <time>2026-05-03T00:07:31Z</time>
      </trkpt>
      <trkpt lat="51.86129" lon="4.31931">
        <ele>0.00000</ele>
        <time>2026-05-03T00:07:33Z</time>
      </trkpt>
      <trkpt lat="51.86129" lon="4.32047">
        <ele>0.00000</ele>
        <time>2026-05-03T00:07:36Z</time>
      </trkpt>
      <trkpt lat="51.86129" lon="4.32047">
        <ele>0.00000</ele>
        <time>2026-05-03T00:07:36Z</time>
      </trkpt>
      <trkpt lat="51.8613" lon="4.32205">
        <ele>0.00000</ele>
        <time>2026-05-03T00:07:39Z</time>
      </trkpt>
      <trkpt lat="51.86138" lon="4.32361">
        <ele>0.00000</ele>
        <time>2026-05-03T00:07:43Z</time>
      </trkpt>
      <trkpt lat="51.86145" lon="4.32458">
        <ele>0.00000</ele>
        <time>2026-05-03T00:07:45Z</time>
      </trkpt>
      <trkpt lat="51.86146" lon="4.3248">
        <ele>0.00000</ele>
        <time>2026-05-03T00:07:46Z</time>
      </trkpt>
      <trkpt lat="51.86146" lon="4.3248">
        <ele>0.00000</ele>
        <time>2026-05-03T00:07:46Z</time>
      </trkpt>
      <trkpt lat="51.86146" lon="4.32487">
        <ele>0.00000</ele>
        <time>2026-05-03T00:07:46Z</time>
      </trkpt>
      <trkpt lat="51.86068" lon="4.32505">
        <ele>0.00000</ele>
        <time>2026-05-03T00:07:49Z</time>
      </trkpt>
      <trkpt lat="51.85988" lon="4.3253">
        <ele>0.00000</ele>
        <time>2026-05-03T00:07:52Z</time>
      </trkpt>
      <trkpt lat="51.85948" lon="4.32553">
        <ele>0.00000</ele>
        <time>2026-05-03T00:07:53Z</time>
      </trkpt>
      <trkpt lat="51.85859" lon="4.32627">
        <ele>0.00000</ele>
        <time>2026-05-03T00:07:57Z</time>
      </trkpt>
      <trkpt lat="51.8584" lon="4.32642">
        <ele>0.00000</ele>
        <time>2026-05-03T00:07:58Z</time>
      </trkpt>
      <trkpt lat="51.8584" lon="4.32642">
        <ele>0.00000</ele>
        <time>2026-05-03T00:07:58Z</time>
      </trkpt>
      <trkpt lat="51.85838" lon="4.32644">
        <ele>0.00000</ele>
        <time>2026-05-03T00:07:58Z</time>
      </trkpt>
      <trkpt lat="51.85843" lon="4.32662">
        <ele>0.00000</ele>
        <time>2026-05-03T00:07:58Z</time>
      </trkpt>
      <trkpt lat="51.85878" lon="4.32797">
        <ele>0.00000</ele>
        <time>2026-05-03T00:08:01Z</time>
      </trkpt>
      <trkpt lat="51.85915" lon="4.32915">
        <ele>0.00000</ele>
        <time>2026-05-03T00:08:04Z</time>
      </trkpt>
      <trkpt lat="51.85938" lon="4.32984">
        <ele>0.00000</ele>
        <time>2026-05-03T00:08:06Z</time>
      </trkpt>
      <trkpt lat="51.85953" lon="4.33036">
        <ele>0.00000</ele>
        <time>2026-05-03T00:08:08Z</time>
      </trkpt>
      <trkpt lat="51.85954" lon="4.33042">
        <ele>0.00000</ele>
        <time>2026-05-03T00:08:08Z</time>
      </trkpt>
      <trkpt lat="51.85964" lon="4.33047">
        <ele>0.00000</ele>
        <time>2026-05-03T00:08:08Z</time>
      </trkpt>
      <trkpt lat="51.85978" lon="4.33056">
        <ele>0.00000</ele>
        <time>2026-05-03T00:08:09Z</time>
      </trkpt>
      <trkpt lat="51.8599" lon="4.33071">
        <ele>0.00000</ele>
        <time>2026-05-03T00:08:09Z</time>
      </trkpt>
      <trkpt lat="51.86108" lon="4.33276">
        <ele>0.00000</ele>
        <time>2026-05-03T00:08:16Z</time>
      </trkpt>
      <trkpt lat="51.86109" lon="4.33279">
        <ele>0.00000</ele>
        <time>2026-05-03T00:08:16Z</time>
      </trkpt>
      <trkpt lat="51.86108" lon="4.33276">
        <ele>0.00000</ele>
        <time>2026-05-03T00:08:16Z</time>
      </trkpt>
      <trkpt lat="51.86036" lon="4.33444">
        <ele>0.00000</ele>
        <time>2026-05-03T00:08:20Z</time>
      </trkpt>
      <trkpt lat="51.86015" lon="4.33484">
        <ele>0.00000</ele>
        <time>2026-05-03T00:08:21Z</time>
      </trkpt>
      <trkpt lat="51.86" lon="4.3353">
        <ele>0.00000</ele>
        <time>2026-05-03T00:08:23Z</time>
      </trkpt>
      <trkpt lat="51.85983" lon="4.33572">
        <ele>0.00000</ele>
        <time>2026-05-03T00:08:24Z</time>
      </trkpt>
      <trkpt lat="51.85975" lon="4.3359">
        <ele>0.00000</ele>
        <time>2026-05-03T00:08:24Z</time>
      </trkpt>
      <trkpt lat="51.85963" lon="4.33605">
        <ele>0.00000</ele>
        <time>2026-05-03T00:08:25Z</time>
      </trkpt>
      <trkpt lat="51.85909" lon="4.33675">
        <ele>0.00000</ele>
        <time>2026-05-03T00:08:27Z</time>
      </trkpt>
      <trkpt lat="51.85904" lon="4.33679">
        <ele>0.00000</ele>
        <time>2026-05-03T00:08:28Z</time>
      </trkpt>
      <trkpt lat="51.85895" lon="4.33679">
        <ele>0.00000</ele>
        <time>2026-05-03T00:08:28Z</time>
      </trkpt>
      <trkpt lat="51.85887" lon="4.33674">
        <ele>0.00000</ele>
        <time>2026-05-03T00:08:28Z</time>
      </trkpt>
      <trkpt lat="51.85881" lon="4.33666">
        <ele>0.00000</ele>
        <time>2026-05-03T00:08:29Z</time>
      </trkpt>
      <trkpt lat="51.8586" lon="4.33617">
        <ele>0.00000</ele>
        <time>2026-05-03T00:08:30Z</time>
      </trkpt>
      <trkpt lat="51.85853" lon="4.33611">
        <ele>0.00000</ele>
        <time>2026-05-03T00:08:30Z</time>
      </trkpt>
      <trkpt lat="51.85845" lon="4.3361">
        <ele>0.00000</ele>
        <time>2026-05-03T00:08:30Z</time>
      </trkpt>
      <trkpt lat="51.85837" lon="4.33615">
        <ele>0.00000</ele>
        <time>2026-05-03T00:08:31Z</time>
      </trkpt>
      <trkpt lat="51.85833" lon="4.33626">
        <ele>0.00000</ele>
        <time>2026-05-03T00:08:31Z</time>
      </trkpt>
      <trkpt lat="51.85832" lon="4.33638">
        <ele>0.00000</ele>
        <time>2026-05-03T00:08:31Z</time>
      </trkpt>
      <trkpt lat="51.85865" lon="4.33723">
        <ele>0.00000</ele>
        <time>2026-05-03T00:08:34Z</time>
      </trkpt>
      <trkpt lat="51.8587" lon="4.33745">
        <ele>0.00000</ele>
        <time>2026-05-03T00:08:34Z</time>
      </trkpt>
      <trkpt lat="51.85867" lon="4.3376">
        <ele>0.00000</ele>
        <time>2026-05-03T00:08:34Z</time>
      </trkpt>
      <trkpt lat="51.85825" lon="4.33803">
        <ele>0.00000</ele>
        <time>2026-05-03T00:08:36Z</time>
      </trkpt>
      <trkpt lat="51.85825" lon="4.33803">
        <ele>0.00000</ele>
        <time>2026-05-03T00:08:36Z</time>
      </trkpt>
      <trkpt lat="51.85821" lon="4.33802">
        <ele>0.00000</ele>
        <time>2026-05-03T00:08:36Z</time>
      </trkpt>
      <trkpt lat="51.85807" lon="4.33772">
        <ele>0.00000</ele>
        <time>2026-05-03T00:08:37Z</time>
      </trkpt>
      <trkpt lat="51.85781" lon="4.33717">
        <ele>0.00000</ele>
        <time>2026-05-03T00:08:39Z</time>
      </trkpt>
      <trkpt lat="51.85723" lon="4.33579">
        <ele>0.00000</ele>
        <time>2026-05-03T00:08:43Z</time>
      </trkpt>
      <trkpt lat="51.85681" lon="4.33485">
        <ele>0.00000</ele>
        <time>2026-05-03T00:08:45Z</time>
      </trkpt>
      <trkpt lat="51.85612" lon="4.33319">
        <ele>0.00000</ele>
        <time>2026-05-03T00:08:50Z</time>
      </trkpt>
      <trkpt lat="51.85591" lon="4.3327">
        <ele>0.00000</ele>
        <time>2026-05-03T00:08:51Z</time>
      </trkpt>
      <trkpt lat="51.85577" lon="4.33243">
        <ele>0.00000</ele>
        <time>2026-05-03T00:08:52Z</time>
      </trkpt>
      <trkpt lat="51.85572" lon="4.33234">
        <ele>0.00000</ele>
        <time>2026-05-03T00:08:52Z</time>
      </trkpt>
      <trkpt lat="51.85567" lon="4.33231">
        <ele>0.00000</ele>
        <time>2026-05-03T00:08:52Z</time>
      </trkpt>
      <trkpt lat="51.85574" lon="4.33229">
        <ele>0.00000</ele>
        <time>2026-05-03T00:08:53Z</time>
      </trkpt>
      <trkpt lat="51.85641" lon="4.33346">
        <ele>0.00000</ele>
        <time>2026-05-03T00:08:56Z</time>
      </trkpt>
      <trkpt lat="51.85687" lon="4.33452">
        <ele>0.00000</ele>
        <time>2026-05-03T00:08:59Z</time>
      </trkpt>
      <trkpt lat="51.85734" lon="4.33547">
        <ele>0.00000</ele>
        <time>2026-05-03T00:09:02Z</time>
      </trkpt>
      <trkpt lat="51.85768" lon="4.33608">
        <ele>0.00000</ele>
        <time>2026-05-03T00:09:04Z</time>
      </trkpt>
      <trkpt lat="51.85839" lon="4.33751">
        <ele>0.00000</ele>
        <time>2026-05-03T00:09:08Z</time>
      </trkpt>
      <trkpt lat="51.85851" lon="4.33777">
        <ele>0.00000</ele>
        <time>2026-05-03T00:09:09Z</time>
      </trkpt>
      <trkpt lat="51.86031" lon="4.34212">
        <ele>0.00000</ele>
        <time>2026-05-03T00:09:21Z</time>
      </trkpt>
      <trkpt lat="51.86057" lon="4.34277">
        <ele>0.00000</ele>
        <time>2026-05-03T00:09:22Z</time>
      </trkpt>
      <trkpt lat="51.86069" lon="4.34315">
        <ele>0.00000</ele>
        <time>2026-05-03T00:09:23Z</time>
      </trkpt>
      <trkpt lat="51.8608" lon="4.34371">
        <ele>0.00000</ele>
        <time>2026-05-03T00:09:25Z</time>
      </trkpt>
      <trkpt lat="51.86083" lon="4.34394">
        <ele>0.00000</ele>
        <time>2026-05-03T00:09:25Z</time>
      </trkpt>
      <trkpt lat="51.86083" lon="4.34394">
        <ele>0.00000</ele>
        <time>2026-05-03T00:09:25Z</time>
      </trkpt>
      <trkpt lat="51.86089" lon="4.34443">
        <ele>0.00000</ele>
        <time>2026-05-03T00:09:26Z</time>
      </trkpt>
      <trkpt lat="51.8608" lon="4.34455">
        <ele>0.00000</ele>
        <time>2026-05-03T00:09:27Z</time>
      </trkpt>
      <trkpt lat="51.86068" lon="4.34468">
        <ele>0.00000</ele>
        <time>2026-05-03T00:09:27Z</time>
      </trkpt>
      <trkpt lat="51.86047" lon="4.34484">
        <ele>0.00000</ele>
        <time>2026-05-03T00:09:28Z</time>
      </trkpt>
      <trkpt lat="51.86018" lon="4.34492">
        <ele>0.00000</ele>
        <time>2026-05-03T00:09:29Z</time>
      </trkpt>
      <trkpt lat="51.86006" lon="4.34492">
        <ele>0.00000</ele>
        <time>2026-05-03T00:09:30Z</time>
      </trkpt>
      <trkpt lat="51.86014" lon="4.34553">
        <ele>0.00000</ele>
        <time>2026-05-03T00:09:31Z</time>
      </trkpt>
      <trkpt lat="51.85995" lon="4.34559">
        <ele>0.00000</ele>
        <time>2026-05-03T00:09:32Z</time>
      </trkpt>
      <trkpt lat="51.85995" lon="4.34559">
        <ele>0.00000</ele>
        <time>2026-05-03T00:09:32Z</time>
      </trkpt>
      <trkpt lat="51.85976" lon="4.34566">
        <ele>0.00000</ele>
        <time>2026-05-03T00:09:32Z</time>
      </trkpt>
      <trkpt lat="51.85955" lon="4.34585">
        <ele>0.00000</ele>
        <time>2026-05-03T00:09:33Z</time>
      </trkpt>
      <trkpt lat="51.85803" lon="4.34699">
        <ele>0.00000</ele>
        <time>2026-05-03T00:09:39Z</time>
      </trkpt>
      <trkpt lat="51.85791" lon="4.34711">
        <ele>0.00000</ele>
        <time>2026-05-03T00:09:40Z</time>
      </trkpt>
      <trkpt lat="51.85791" lon="4.34711">
        <ele>0.00000</ele>
        <time>2026-05-03T00:09:40Z</time>
      </trkpt>
      <trkpt lat="51.85571" lon="4.3494">
        <ele>0.00000</ele>
        <time>2026-05-03T00:09:50Z</time>
      </trkpt>
      <trkpt lat="51.85571" lon="4.3494">
        <ele>0.00000</ele>
        <time>2026-05-03T00:09:50Z</time>
      </trkpt>
      <trkpt lat="51.85277" lon="4.35236">
        <ele>0.00000</ele>
        <time>2026-05-03T00:10:02Z</time>
      </trkpt>
      <trkpt lat="51.8524" lon="4.35273">
        <ele>0.00000</ele>
        <time>2026-05-03T00:10:04Z</time>
      </trkpt>
      <trkpt lat="51.85216" lon="4.353">
        <ele>0.00000</ele>
        <time>2026-05-03T00:10:05Z</time>
      </trkpt>
      <trkpt lat="51.85208" lon="4.3531">
        <ele>0.00000</ele>
        <time>2026-05-03T00:10:05Z</time>
      </trkpt>
      <trkpt lat="51.85194" lon="4.35331">
        <ele>0.00000</ele>
        <time>2026-05-03T00:10:06Z</time>
      </trkpt>
      <trkpt lat="51.85175" lon="4.35364">
        <ele>0.00000</ele>
        <time>2026-05-03T00:10:07Z</time>
      </trkpt>
      <trkpt lat="51.85106" lon="4.35499">
        <ele>0.00000</ele>
        <time>2026-05-03T00:10:11Z</time>
      </trkpt>
      <trkpt lat="51.85075" lon="4.35565">
        <ele>0.00000</ele>
        <time>2026-05-03T00:10:13Z</time>
      </trkpt>
      <trkpt lat="51.85066" lon="4.3559">
        <ele>0.00000</ele>
        <time>2026-05-03T00:10:13Z</time>
      </trkpt>
      <trkpt lat="51.85068" lon="4.35617">
        <ele>0.00000</ele>
        <time>2026-05-03T00:10:14Z</time>
      </trkpt>
      <trkpt lat="51.85071" lon="4.3567">
        <ele>0.00000</ele>
        <time>2026-05-03T00:10:15Z</time>
      </trkpt>
      <trkpt lat="51.85067" lon="4.3571">
        <ele>0.00000</ele>
        <time>2026-05-03T00:10:16Z</time>
      </trkpt>
      <trkpt lat="51.85065" lon="4.35718">
        <ele>0.00000</ele>
        <time>2026-05-03T00:10:16Z</time>
      </trkpt>
      <trkpt lat="51.85065" lon="4.35718">
        <ele>0.00000</ele>
        <time>2026-05-03T00:10:16Z</time>
      </trkpt>
      <trkpt lat="51.85059" lon="4.35738">
        <ele>0.00000</ele>
        <time>2026-05-03T00:10:17Z</time>
      </trkpt>
      <trkpt lat="51.85051" lon="4.35753">
        <ele>0.00000</ele>
        <time>2026-05-03T00:10:17Z</time>
      </trkpt>
      <trkpt lat="51.85031" lon="4.35782">
        <ele>0.00000</ele>
        <time>2026-05-03T00:10:18Z</time>
      </trkpt>
      <trkpt lat="51.85014" lon="4.35797">
        <ele>0.00000</ele>
        <time>2026-05-03T00:10:19Z</time>
      </trkpt>
      <trkpt lat="51.84981" lon="4.35818">
        <ele>0.00000</ele>
        <time>2026-05-03T00:10:20Z</time>
      </trkpt>
      <trkpt lat="51.84968" lon="4.35828">
        <ele>0.00000</ele>
        <time>2026-05-03T00:10:21Z</time>
      </trkpt>
      <trkpt lat="51.84944" lon="4.35907">
        <ele>0.00000</ele>
        <time>2026-05-03T00:10:23Z</time>
      </trkpt>
      <trkpt lat="51.84916" lon="4.35999">
        <ele>0.00000</ele>
        <time>2026-05-03T00:10:25Z</time>
      </trkpt>
      <trkpt lat="51.84841" lon="4.36234">
        <ele>0.00000</ele>
        <time>2026-05-03T00:10:31Z</time>
      </trkpt>
      <trkpt lat="51.84816" lon="4.36319">
        <ele>0.00000</ele>
        <time>2026-05-03T00:10:33Z</time>
      </trkpt>
      <trkpt lat="51.84783" lon="4.36461">
        <ele>0.00000</ele>
        <time>2026-05-03T00:10:37Z</time>
      </trkpt>
      <trkpt lat="51.84742" lon="4.36662">
        <ele>0.00000</ele>
        <time>2026-05-03T00:10:42Z</time>
      </trkpt>
      <trkpt lat="51.84742" lon="4.36662">
        <ele>0.00000</ele>
        <time>2026-05-03T00:10:42Z</time>
      </trkpt>
      <trkpt lat="51.84622" lon="4.37257">
        <ele>0.00000</ele>
        <time>2026-05-03T00:10:56Z</time>
      </trkpt>
      <trkpt lat="51.84564" lon="4.37621">
        <ele>0.00000</ele>
        <time>2026-05-03T00:11:04Z</time>
      </trkpt>
      <trkpt lat="51.84564" lon="4.37621">
        <ele>0.00000</ele>
        <time>2026-05-03T00:11:04Z</time>
      </trkpt>
      <trkpt lat="51.84537" lon="4.37795">
        <ele>0.00000</ele>
        <time>2026-05-03T00:11:08Z</time>
      </trkpt>
      <trkpt lat="51.84534" lon="4.37802">
        <ele>0.00000</ele>
        <time>2026-05-03T00:11:08Z</time>
      </trkpt>
      <trkpt lat="51.84504" lon="4.37848">
        <ele>0.00000</ele>
        <time>2026-05-03T00:11:10Z</time>
      </trkpt>
      <trkpt lat="51.84499" lon="4.37857">
        <ele>0.00000</ele>
        <time>2026-05-03T00:11:10Z</time>
      </trkpt>
      <trkpt lat="51.84456" lon="4.38107">
        <ele>0.00000</ele>
        <time>2026-05-03T00:11:16Z</time>
      </trkpt>
      <trkpt lat="51.84446" lon="4.38183">
        <ele>0.00000</ele>
        <time>2026-05-03T00:11:18Z</time>
      </trkpt>
      <trkpt lat="51.8445" lon="4.38251">
        <ele>0.00000</ele>
        <time>2026-05-03T00:11:19Z</time>
      </trkpt>
      <trkpt lat="51.84459" lon="4.3829">
        <ele>0.00000</ele>
        <time>2026-05-03T00:11:20Z</time>
      </trkpt>
      <trkpt lat="51.84482" lon="4.38367">
        <ele>0.00000</ele>
        <time>2026-05-03T00:11:22Z</time>
      </trkpt>
      <trkpt lat="51.84537" lon="4.38543">
        <ele>0.00000</ele>
        <time>2026-05-03T00:11:27Z</time>
      </trkpt>
      <trkpt lat="51.84536" lon="4.3855">
        <ele>0.00000</ele>
        <time>2026-05-03T00:11:27Z</time>
      </trkpt>
      <trkpt lat="51.8448" lon="4.38638">
        <ele>0.00000</ele>
        <time>2026-05-03T00:11:30Z</time>
      </trkpt>
      <trkpt lat="51.84426" lon="4.38736">
        <ele>0.00000</ele>
        <time>2026-05-03T00:11:33Z</time>
      </trkpt>
      <trkpt lat="51.84418" lon="4.38758">
        <ele>0.00000</ele>
        <time>2026-05-03T00:11:33Z</time>
      </trkpt>
      <trkpt lat="51.84401" lon="4.38854">
        <ele>0.00000</ele>
        <time>2026-05-03T00:11:36Z</time>
      </trkpt>
      <trkpt lat="51.84386" lon="4.38946">
        <ele>0.00000</ele>
        <time>2026-05-03T00:11:38Z</time>
      </trkpt>
      <trkpt lat="51.84384" lon="4.39033">
        <ele>0.00000</ele>
        <time>2026-05-03T00:11:40Z</time>
      </trkpt>
      <trkpt lat="51.84384" lon="4.39033">
        <ele>0.00000</ele>
        <time>2026-05-03T00:11:40Z</time>
      </trkpt>
      <trkpt lat="51.84384" lon="4.39257">
        <ele>0.00000</ele>
        <time>2026-05-03T00:11:45Z</time>
      </trkpt>
      <trkpt lat="51.84404" lon="4.39492">
        <ele>0.00000</ele>
        <time>2026-05-03T00:11:50Z</time>
      </trkpt>
      <trkpt lat="51.84441" lon="4.39717">
        <ele>0.00000</ele>
        <time>2026-05-03T00:11:55Z</time>
      </trkpt>
      <trkpt lat="51.84474" lon="4.39971">
        <ele>0.00000</ele>
        <time>2026-05-03T00:12:01Z</time>
      </trkpt>
      <trkpt lat="51.8449" lon="4.40075">
        <ele>0.00000</ele>
        <time>2026-05-03T00:12:04Z</time>
      </trkpt>
      <trkpt lat="51.84497" lon="4.40195">
        <ele>0.00000</ele>
        <time>2026-05-03T00:12:06Z</time>
      </trkpt>
      <trkpt lat="51.8452" lon="4.40301">
        <ele>0.00000</ele>
        <time>2026-05-03T00:12:09Z</time>
      </trkpt>
      <trkpt lat="51.84533" lon="4.40533">
        <ele>0.00000</ele>
        <time>2026-05-03T00:12:14Z</time>
      </trkpt>
      <trkpt lat="51.84533" lon="4.40533">
        <ele>0.00000</ele>
        <time>2026-05-03T00:12:14Z</time>
      </trkpt>
      <trkpt lat="51.84539" lon="4.40544">
        <ele>0.00000</ele>
        <time>2026-05-03T00:12:15Z</time>
      </trkpt>
      <trkpt lat="51.84544" lon="4.40545">
        <ele>0.00000</ele>
        <time>2026-05-03T00:12:15Z</time>
      </trkpt>
      <trkpt lat="51.84642" lon="4.405">
        <ele>0.00000</ele>
        <time>2026-05-03T00:12:18Z</time>
      </trkpt>
      <trkpt lat="51.84655" lon="4.40496">
        <ele>0.00000</ele>
        <time>2026-05-03T00:12:19Z</time>
      </trkpt>
      <trkpt lat="51.8467" lon="4.40496">
        <ele>0.00000</ele>
        <time>2026-05-03T00:12:20Z</time>
      </trkpt>
      <trkpt lat="51.84676" lon="4.40502">
        <ele>0.00000</ele>
        <time>2026-05-03T00:12:20Z</time>
      </trkpt>
      <trkpt lat="51.84682" lon="4.4051">
        <ele>0.00000</ele>
        <time>2026-05-03T00:12:20Z</time>
      </trkpt>
      <trkpt lat="51.84683" lon="4.40519">
        <ele>0.00000</ele>
        <time>2026-05-03T00:12:20Z</time>
      </trkpt>
      <trkpt lat="51.84683" lon="4.40549">
        <ele>0.00000</ele>
        <time>2026-05-03T00:12:21Z</time>
      </trkpt>
      <trkpt lat="51.84682" lon="4.40578">
        <ele>0.00000</ele>
        <time>2026-05-03T00:12:22Z</time>
      </trkpt>
      <trkpt lat="51.84669" lon="4.40632">
        <ele>0.00000</ele>
        <time>2026-05-03T00:12:23Z</time>
      </trkpt>
      <trkpt lat="51.84657" lon="4.407">
        <ele>0.00000</ele>
        <time>2026-05-03T00:12:25Z</time>
      </trkpt>
      <trkpt lat="51.84621" lon="4.40958">
        <ele>0.00000</ele>
        <time>2026-05-03T00:12:30Z</time>
      </trkpt>
      <trkpt lat="51.84621" lon="4.40958">
        <ele>0.00000</ele>
        <time>2026-05-03T00:12:30Z</time>
      </trkpt>
      <trkpt lat="51.84614" lon="4.40995">
        <ele>0.00000</ele>
        <time>2026-05-03T00:12:31Z</time>
      </trkpt>
      <trkpt lat="51.84607" lon="4.41011">
        <ele>0.00000</ele>
        <time>2026-05-03T00:12:32Z</time>
      </trkpt>
      <trkpt lat="51.84577" lon="4.41049">
        <ele>0.00000</ele>
        <time>2026-05-03T00:12:33Z</time>
      </trkpt>
      <trkpt lat="51.84571" lon="4.41066">
        <ele>0.00000</ele>
        <time>2026-05-03T00:12:34Z</time>
      </trkpt>
      <trkpt lat="51.84567" lon="4.41081">
        <ele>0.00000</ele>
        <time>2026-05-03T00:12:34Z</time>
      </trkpt>
      <trkpt lat="51.84555" lon="4.41378">
        <ele>0.00000</ele>
        <time>2026-05-03T00:12:41Z</time>
      </trkpt>
      <trkpt lat="51.84556" lon="4.41441">
        <ele>0.00000</ele>
        <time>2026-05-03T00:12:42Z</time>
      </trkpt>
      <trkpt lat="51.84564" lon="4.41474">
        <ele>0.00000</ele>
        <time>2026-05-03T00:12:43Z</time>
      </trkpt>
      <trkpt lat="51.84583" lon="4.41525">
        <ele>0.00000</ele>
        <time>2026-05-03T00:12:44Z</time>
      </trkpt>
      <trkpt lat="51.84583" lon="4.41525">
        <ele>0.00000</ele>
        <time>2026-05-03T00:12:44Z</time>
      </trkpt>
      <trkpt lat="51.84724" lon="4.41822">
        <ele>0.00000</ele>
        <time>2026-05-03T00:12:53Z</time>
      </trkpt>
      <trkpt lat="51.84724" lon="4.41822">
        <ele>0.00000</ele>
        <time>2026-05-03T00:12:53Z</time>
      </trkpt>
      <trkpt lat="51.847249" lon="4.418332">
        <ele>0.00000</ele>
        <time>2026-05-03T00:12:53Z</time>
      </trkpt>
      <trkpt lat="51.847412" lon="4.418471">
        <ele>0.00000</ele>
        <time>2026-05-03T00:12:54Z</time>
      </trkpt>
      <trkpt lat="51.847412" lon="4.418471">
        <ele>0.00000</ele>
        <time>2026-05-03T00:12:54Z</time>
      </trkpt>
      <trkpt lat="51.847514" lon="4.418742">
        <ele>0.00000</ele>
        <time>2026-05-03T00:12:54Z</time>
      </trkpt>
      <trkpt lat="51.847164" lon="4.419197">
        <ele>0.00000</ele>
        <time>2026-05-03T00:12:56Z</time>
      </trkpt>
      <trkpt lat="51.847043" lon="4.419426">
        <ele>0.00000</ele>
        <time>2026-05-03T00:12:57Z</time>
      </trkpt>
      <trkpt lat="51.846395" lon="4.421692">
        <ele>0.00000</ele>
        <time>2026-05-03T00:13:02Z</time>
      </trkpt>
      <trkpt lat="51.846199" lon="4.421939">
        <ele>0.00000</ele>
        <time>2026-05-03T00:13:03Z</time>
      </trkpt>
      <trkpt lat="51.84602" lon="4.422009">
        <ele>0.00000</ele>
        <time>2026-05-03T00:13:04Z</time>
      </trkpt>
      <trkpt lat="51.84602" lon="4.422009">
        <ele>0.00000</ele>
        <time>2026-05-03T00:13:04Z</time>
      </trkpt>
      <trkpt lat="51.845909" lon="4.422052">
        <ele>0.00000</ele>
        <time>2026-05-03T00:13:04Z</time>
      </trkpt>
      <trkpt lat="51.845967" lon="4.422662">
        <ele>0.00000</ele>
        <time>2026-05-03T00:13:06Z</time>
      </trkpt>
      <trkpt lat="51.845945" lon="4.422848">
        <ele>0.00000</ele>
        <time>2026-05-03T00:13:06Z</time>
      </trkpt>
      <trkpt lat="51.845318" lon="4.425737">
        <ele>0.00000</ele>
        <time>2026-05-03T00:13:13Z</time>
      </trkpt>
      <trkpt lat="51.845031" lon="4.42719">
        <ele>0.00000</ele>
        <time>2026-05-03T00:13:17Z</time>
      </trkpt>
      <trkpt lat="51.845031" lon="4.42719">
        <ele>0.00000</ele>
        <time>2026-05-03T00:13:17Z</time>
      </trkpt>
      <trkpt lat="51.843035" lon="4.437943">
        <ele>0.00000</ele>
        <time>2026-05-03T00:13:42Z</time>
      </trkpt>
      <trkpt lat="51.843035" lon="4.437943">
        <ele>0.00000</ele>
        <time>2026-05-03T00:13:42Z</time>
      </trkpt>
      <trkpt lat="51.842943" lon="4.438385">
        <ele>0.00000</ele>
        <time>2026-05-03T00:13:43Z</time>
      </trkpt>
      <trkpt lat="51.842824" lon="4.438761">
        <ele>0.00000</ele>
        <time>2026-05-03T00:13:44Z</time>
      </trkpt>
      <trkpt lat="51.842603" lon="4.439253">
        <ele>0.00000</ele>
        <time>2026-05-03T00:13:45Z</time>
      </trkpt>
      <trkpt lat="51.842514" lon="4.439544">
        <ele>0.00000</ele>
        <time>2026-05-03T00:13:46Z</time>
      </trkpt>
      <trkpt lat="51.842498" lon="4.439909">
        <ele>0.00000</ele>
        <time>2026-05-03T00:13:47Z</time>
      </trkpt>
      <trkpt lat="51.842444" lon="4.440201">
        <ele>0.00000</ele>
        <time>2026-05-03T00:13:48Z</time>
      </trkpt>
      <trkpt lat="51.841724" lon="4.443879">
        <ele>0.00000</ele>
        <time>2026-05-03T00:13:56Z</time>
      </trkpt>
      <trkpt lat="51.841492" lon="4.444892">
        <ele>0.00000</ele>
        <time>2026-05-03T00:13:59Z</time>
      </trkpt>
      <trkpt lat="51.84148" lon="4.445027">
        <ele>0.00000</ele>
        <time>2026-05-03T00:13:59Z</time>
      </trkpt>
      <trkpt lat="51.841548" lon="4.445518">
        <ele>0.00000</ele>
        <time>2026-05-03T00:14:00Z</time>
      </trkpt>
      <trkpt lat="51.841548" lon="4.445518">
        <ele>0.00000</ele>
        <time>2026-05-03T00:14:00Z</time>
      </trkpt>
      <trkpt lat="51.841526" lon="4.445752">
        <ele>0.00000</ele>
        <time>2026-05-03T00:14:01Z</time>
      </trkpt>
      <trkpt lat="51.841613" lon="4.445923">
        <ele>0.00000</ele>
        <time>2026-05-03T00:14:01Z</time>
      </trkpt>
      <trkpt lat="51.841899" lon="4.4482">
        <ele>0.00000</ele>
        <time>2026-05-03T00:14:07Z</time>
      </trkpt>
      <trkpt lat="51.84191" lon="4.448902">
        <ele>0.00000</ele>
        <time>2026-05-03T00:14:08Z</time>
      </trkpt>
      <trkpt lat="51.841851" lon="4.449314">
        <ele>0.00000</ele>
        <time>2026-05-03T00:14:09Z</time>
      </trkpt>
      <trkpt lat="51.841968" lon="4.449373">
        <ele>0.00000</ele>
        <time>2026-05-03T00:14:10Z</time>
      </trkpt>
      <trkpt lat="51.841844" lon="4.450115">
        <ele>0.00000</ele>
        <time>2026-05-03T00:14:11Z</time>
      </trkpt>
      <trkpt lat="51.841676" lon="4.450568">
        <ele>0.00000</ele>
        <time>2026-05-03T00:14:13Z</time>
      </trkpt>
      <trkpt lat="51.841676" lon="4.450568">
        <ele>0.00000</ele>
        <time>2026-05-03T00:14:13Z</time>
      </trkpt>
      <trkpt lat="51.839403" lon="4.455497">
        <ele>0.00000</ele>
        <time>2026-05-03T00:14:26Z</time>
      </trkpt>
      <trkpt lat="51.839403" lon="4.455497">
        <ele>0.00000</ele>
        <time>2026-05-03T00:14:26Z</time>
      </trkpt>
      <trkpt lat="51.836997" lon="4.460706">
        <ele>0.00000</ele>
        <time>2026-05-03T00:14:41Z</time>
      </trkpt>
      <trkpt lat="51.836909" lon="4.461153">
        <ele>0.00000</ele>
        <time>2026-05-03T00:14:42Z</time>
      </trkpt>
      <trkpt lat="51.835309" lon="4.46031">
        <ele>0.00000</ele>
        <time>2026-05-03T00:14:48Z</time>
      </trkpt>
      <trkpt lat="51.835309" lon="4.46031">
        <ele>0.00000</ele>
        <time>2026-05-03T00:14:48Z</time>
      </trkpt>
      <trkpt lat="51.834796" lon="4.460033">
        <ele>0.00000</ele>
        <time>2026-05-03T00:14:50Z</time>
      </trkpt>
      <trkpt lat="51.834554" lon="4.461395">
        <ele>0.00000</ele>
        <time>2026-05-03T00:14:54Z</time>
      </trkpt>
      <trkpt lat="51.834342" lon="4.464467">
        <ele>0.00000</ele>
        <time>2026-05-03T00:15:01Z</time>
      </trkpt>
      <trkpt lat="51.834504" lon="4.46512">
        <ele>0.00000</ele>
        <time>2026-05-03T00:15:02Z</time>
      </trkpt>
      <trkpt lat="51.834504" lon="4.46512">
        <ele>0.00000</ele>
        <time>2026-05-03T00:15:02Z</time>
      </trkpt>
      <trkpt lat="51.834593" lon="4.465516">
        <ele>0.00000</ele>
        <time>2026-05-03T00:15:03Z</time>
      </trkpt>
      <trkpt lat="51.834828" lon="4.467288">
        <ele>0.00000</ele>
        <time>2026-05-03T00:15:07Z</time>
      </trkpt>
      <trkpt lat="51.834795" lon="4.467429">
        <ele>0.00000</ele>
        <time>2026-05-03T00:15:08Z</time>
      </trkpt>
      <trkpt lat="51.83475" lon="4.467475">
        <ele>0.00000</ele>
        <time>2026-05-03T00:15:08Z</time>
      </trkpt>
      <trkpt lat="51.834345" lon="4.467632">
        <ele>0.00000</ele>
        <time>2026-05-03T00:15:09Z</time>
      </trkpt>
      <trkpt lat="51.834253" lon="4.467767">
        <ele>0.00000</ele>
        <time>2026-05-03T00:15:10Z</time>
      </trkpt>
      <trkpt lat="51.834186" lon="4.468179">
        <ele>0.00000</ele>
        <time>2026-05-03T00:15:11Z</time>
      </trkpt>
      <trkpt lat="51.83436" lon="4.469366">
        <ele>0.00000</ele>
        <time>2026-05-03T00:15:13Z</time>
      </trkpt>
      <trkpt lat="51.834449" lon="4.469563">
        <ele>0.00000</ele>
        <time>2026-05-03T00:15:14Z</time>
      </trkpt>
      <trkpt lat="51.835207" lon="4.470129">
        <ele>0.00000</ele>
        <time>2026-05-03T00:15:17Z</time>
      </trkpt>
      <trkpt lat="51.835277" lon="4.470291">
        <ele>0.00000</ele>
        <time>2026-05-03T00:15:18Z</time>
      </trkpt>
      <trkpt lat="51.835313" lon="4.47058">
        <ele>0.00000</ele>
        <time>2026-05-03T00:15:18Z</time>
      </trkpt>
      <trkpt lat="51.835313" lon="4.47058">
        <ele>0.00000</ele>
        <time>2026-05-03T00:15:18Z</time>
      </trkpt>
      <trkpt lat="51.835573" lon="4.472199">
        <ele>0.00000</ele>
        <time>2026-05-03T00:15:22Z</time>
      </trkpt>
      <trkpt lat="51.83577" lon="4.473053">
        <ele>0.00000</ele>
        <time>2026-05-03T00:15:24Z</time>
      </trkpt>
      <trkpt lat="51.836993" lon="4.477393">
        <ele>0.00000</ele>
        <time>2026-05-03T00:15:35Z</time>
      </trkpt>
      <trkpt lat="51.838307" lon="4.481461">
        <ele>0.00000</ele>
        <time>2026-05-03T00:15:45Z</time>
      </trkpt>
      <trkpt lat="51.838307" lon="4.481461">
        <ele>0.00000</ele>
        <time>2026-05-03T00:15:45Z</time>
      </trkpt>
      <trkpt lat="51.839116" lon="4.48384">
        <ele>0.00000</ele>
        <time>2026-05-03T00:15:51Z</time>
      </trkpt>
      <trkpt lat="51.841153" lon="4.491291">
        <ele>0.00000</ele>
        <time>2026-05-03T00:16:10Z</time>
      </trkpt>
      <trkpt lat="51.841153" lon="4.491291">
        <ele>0.00000</ele>
        <time>2026-05-03T00:16:10Z</time>
      </trkpt>
      <trkpt lat="51.841351" lon="4.49202">
        <ele>0.00000</ele>
        <time>2026-05-03T00:16:12Z</time>
      </trkpt>
      <trkpt lat="51.841378" lon="4.492237">
        <ele>0.00000</ele>
        <time>2026-05-03T00:16:12Z</time>
      </trkpt>
      <trkpt lat="51.841342" lon="4.492392">
        <ele>0.00000</ele>
        <time>2026-05-03T00:16:12Z</time>
      </trkpt>
      <trkpt lat="51.840863" lon="4.493456">
        <ele>0.00000</ele>
        <time>2026-05-03T00:16:15Z</time>
      </trkpt>
      <trkpt lat="51.840848" lon="4.493629">
        <ele>0.00000</ele>
        <time>2026-05-03T00:16:16Z</time>
      </trkpt>
      <trkpt lat="51.840802" lon="4.494124">
        <ele>0.00000</ele>
        <time>2026-05-03T00:16:17Z</time>
      </trkpt>
      <trkpt lat="51.840712" lon="4.494838">
        <ele>0.00000</ele>
        <time>2026-05-03T00:16:19Z</time>
      </trkpt>
      <trkpt lat="51.840644" lon="4.495871">
        <ele>0.00000</ele>
        <time>2026-05-03T00:16:21Z</time>
      </trkpt>
      <trkpt lat="51.840294" lon="4.497302">
        <ele>0.00000</ele>
        <time>2026-05-03T00:16:24Z</time>
      </trkpt>
      <trkpt lat="51.840416" lon="4.498751">
        <ele>0.00000</ele>
        <time>2026-05-03T00:16:28Z</time>
      </trkpt>
      <trkpt lat="51.840708" lon="4.49911">
        <ele>0.00000</ele>
        <time>2026-05-03T00:16:29Z</time>
      </trkpt>
      <trkpt lat="51.840813" lon="4.499312">
        <ele>0.00000</ele>
        <time>2026-05-03T00:16:30Z</time>
      </trkpt>
      <trkpt lat="51.840958" lon="4.499791">
        <ele>0.00000</ele>
        <time>2026-05-03T00:16:31Z</time>
      </trkpt>
      <trkpt lat="51.840985" lon="4.50028">
        <ele>0.00000</ele>
        <time>2026-05-03T00:16:32Z</time>
      </trkpt>
      <trkpt lat="51.840918" lon="4.500894">
        <ele>0.00000</ele>
        <time>2026-05-03T00:16:33Z</time>
      </trkpt>
      <trkpt lat="51.840949" lon="4.501776">
        <ele>0.00000</ele>
        <time>2026-05-03T00:16:35Z</time>
      </trkpt>
      <trkpt lat="51.840949" lon="4.501776">
        <ele>0.00000</ele>
        <time>2026-05-03T00:16:35Z</time>
      </trkpt>
      <trkpt lat="51.841003" lon="4.503338">
        <ele>0.00000</ele>
        <time>2026-05-03T00:16:39Z</time>
      </trkpt>
      <trkpt lat="51.840962" lon="4.503708">
        <ele>0.00000</ele>
        <time>2026-05-03T00:16:40Z</time>
      </trkpt>
      <trkpt lat="51.840072" lon="4.507295">
        <ele>0.00000</ele>
        <time>2026-05-03T00:16:49Z</time>
      </trkpt>
      <trkpt lat="51.840001" lon="4.507993">
        <ele>0.00000</ele>
        <time>2026-05-03T00:16:50Z</time>
      </trkpt>
      <trkpt lat="51.839409" lon="4.509348">
        <ele>0.00000</ele>
        <time>2026-05-03T00:16:54Z</time>
      </trkpt>
      <trkpt lat="51.839348" lon="4.50974">
        <ele>0.00000</ele>
        <time>2026-05-03T00:16:55Z</time>
      </trkpt>
      <trkpt lat="51.839313" lon="4.511101">
        <ele>0.00000</ele>
        <time>2026-05-03T00:16:58Z</time>
      </trkpt>
      <trkpt lat="51.838944" lon="4.512881">
        <ele>0.00000</ele>
        <time>2026-05-03T00:17:02Z</time>
      </trkpt>
      <trkpt lat="51.838865" lon="4.513126">
        <ele>0.00000</ele>
        <time>2026-05-03T00:17:03Z</time>
      </trkpt>
      <trkpt lat="51.838696" lon="4.513374">
        <ele>0.00000</ele>
        <time>2026-05-03T00:17:04Z</time>
      </trkpt>
      <trkpt lat="51.838696" lon="4.513374">
        <ele>0.00000</ele>
        <time>2026-05-03T00:17:04Z</time>
      </trkpt>
      <trkpt lat="51.838573" lon="4.513566">
        <ele>0.00000</ele>
        <time>2026-05-03T00:17:04Z</time>
      </trkpt>
      <trkpt lat="51.838413" lon="4.514136">
        <ele>0.00000</ele>
        <time>2026-05-03T00:17:06Z</time>
      </trkpt>
      <trkpt lat="51.836941" lon="4.513442">
        <ele>0.00000</ele>
        <time>2026-05-03T00:17:11Z</time>
      </trkpt>
      <trkpt lat="51.835698" lon="4.512736">
        <ele>0.00000</ele>
        <time>2026-05-03T00:17:16Z</time>
      </trkpt>
      <trkpt lat="51.835525" lon="4.512711">
        <ele>0.00000</ele>
        <time>2026-05-03T00:17:17Z</time>
      </trkpt>
      <trkpt lat="51.835452" lon="4.512759">
        <ele>0.00000</ele>
        <time>2026-05-03T00:17:17Z</time>
      </trkpt>
      <trkpt lat="51.83539" lon="4.512865">
        <ele>0.00000</ele>
        <time>2026-05-03T00:17:17Z</time>
      </trkpt>
      <trkpt lat="51.835126" lon="4.513924">
        <ele>0.00000</ele>
        <time>2026-05-03T00:17:20Z</time>
      </trkpt>
      <trkpt lat="51.835126" lon="4.513924">
        <ele>0.00000</ele>
        <time>2026-05-03T00:17:20Z</time>
      </trkpt>
      <trkpt lat="51.834804" lon="4.515146">
        <ele>0.00000</ele>
        <time>2026-05-03T00:17:23Z</time>
      </trkpt>
      <trkpt lat="51.834806" lon="4.515456">
        <ele>0.00000</ele>
        <time>2026-05-03T00:17:24Z</time>
      </trkpt>
      <trkpt lat="51.83488" lon="4.51561">
        <ele>0.00000</ele>
        <time>2026-05-03T00:17:24Z</time>
      </trkpt>
      <trkpt lat="51.835183" lon="4.515795">
        <ele>0.00000</ele>
        <time>2026-05-03T00:17:25Z</time>
      </trkpt>
      <trkpt lat="51.837476" lon="4.516909">
        <ele>0.00000</ele>
        <time>2026-05-03T00:17:34Z</time>
      </trkpt>
      <trkpt lat="51.837686" lon="4.516945">
        <ele>0.00000</ele>
        <time>2026-05-03T00:17:35Z</time>
      </trkpt>
      <trkpt lat="51.838157" lon="4.5168">
        <ele>0.00000</ele>
        <time>2026-05-03T00:17:37Z</time>
      </trkpt>
      <trkpt lat="51.838157" lon="4.5168">
        <ele>0.00000</ele>
        <time>2026-05-03T00:17:37Z</time>
      </trkpt>
      <trkpt lat="51.838308" lon="4.516754">
        <ele>0.00000</ele>
        <time>2026-05-03T00:17:37Z</time>
      </trkpt>
      <trkpt lat="51.838461" lon="4.516622">
        <ele>0.00000</ele>
        <time>2026-05-03T00:17:38Z</time>
      </trkpt>
      <trkpt lat="51.838495" lon="4.516466">
        <ele>0.00000</ele>
        <time>2026-05-03T00:17:38Z</time>
      </trkpt>
      <trkpt lat="51.838485" lon="4.516391">
        <ele>0.00000</ele>
        <time>2026-05-03T00:17:38Z</time>
      </trkpt>
      <trkpt lat="51.838377" lon="4.516204">
        <ele>0.00000</ele>
        <time>2026-05-03T00:17:39Z</time>
      </trkpt>
      <trkpt lat="51.838342" lon="4.516182">
        <ele>0.00000</ele>
        <time>2026-05-03T00:17:39Z</time>
      </trkpt>
      <trkpt lat="51.837961" lon="4.5164">
        <ele>0.00000</ele>
        <time>2026-05-03T00:17:41Z</time>
      </trkpt>
      <trkpt lat="51.837853" lon="4.516392">
        <ele>0.00000</ele>
        <time>2026-05-03T00:17:41Z</time>
      </trkpt>
      <trkpt lat="51.837447" lon="4.516131">
        <ele>0.00000</ele>
        <time>2026-05-03T00:17:43Z</time>
      </trkpt>
      <trkpt lat="51.837038" lon="4.515924">
        <ele>0.00000</ele>
        <time>2026-05-03T00:17:44Z</time>
      </trkpt>
      <trkpt lat="51.83531" lon="4.51512">
        <ele>0.00000</ele>
        <time>2026-05-03T00:17:51Z</time>
      </trkpt>
      <trkpt lat="51.83488" lon="4.51487">
        <ele>0.00000</ele>
        <time>2026-05-03T00:17:52Z</time>
      </trkpt>
      <trkpt lat="51.8345" lon="4.51464">
        <ele>0.00000</ele>
        <time>2026-05-03T00:17:54Z</time>
      </trkpt>
      <trkpt lat="51.83253" lon="4.51329">
        <ele>0.00000</ele>
        <time>2026-05-03T00:18:02Z</time>
      </trkpt>
      <trkpt lat="51.83035" lon="4.51185">
        <ele>0.00000</ele>
        <time>2026-05-03T00:18:10Z</time>
      </trkpt>
      <trkpt lat="51.82992" lon="4.51148">
        <ele>0.00000</ele>
        <time>2026-05-03T00:18:12Z</time>
      </trkpt>
      <trkpt lat="51.82837" lon="4.51015">
        <ele>0.00000</ele>
        <time>2026-05-03T00:18:19Z</time>
      </trkpt>
      <trkpt lat="51.82765" lon="4.50953">
        <ele>0.00000</ele>
        <time>2026-05-03T00:18:22Z</time>
      </trkpt>
      <trkpt lat="51.827319" lon="4.50955">
        <ele>0.00000</ele>
        <time>2026-05-03T00:18:23Z</time>
      </trkpt>
      <trkpt lat="51.82711" lon="4.509338">
        <ele>0.00000</ele>
        <time>2026-05-03T00:18:24Z</time>
      </trkpt>
      <trkpt lat="51.826965" lon="4.507675">
        <ele>0.00000</ele>
        <time>2026-05-03T00:18:27Z</time>
      </trkpt>
      <trkpt lat="51.826272" lon="4.506448">
        <ele>0.00000</ele>
        <time>2026-05-03T00:18:31Z</time>
      </trkpt>
      <trkpt lat="51.824477" lon="4.503845">
        <ele>0.00000</ele>
        <time>2026-05-03T00:18:40Z</time>
      </trkpt>
      <trkpt lat="51.822017" lon="4.499568">
        <ele>0.00000</ele>
        <time>2026-05-03T00:18:53Z</time>
      </trkpt>
      <trkpt lat="51.819657" lon="4.49619">
        <ele>0.00000</ele>
        <time>2026-05-03T00:19:05Z</time>
      </trkpt>
      <trkpt lat="51.819657" lon="4.49619">
        <ele>0.00000</ele>
        <time>2026-05-03T00:19:05Z</time>
      </trkpt>
      <trkpt lat="51.8193" lon="4.4956">
        <ele>0.00000</ele>
        <time>2026-05-03T00:19:07Z</time>
      </trkpt>
      <trkpt lat="51.818505" lon="4.496723">
        <ele>0.00000</ele>
        <time>2026-05-03T00:19:11Z</time>
      </trkpt>
      <trkpt lat="51.817913" lon="4.498104">
        <ele>0.00000</ele>
        <time>2026-05-03T00:19:14Z</time>
      </trkpt>
      <trkpt lat="51.817559" lon="4.49854">
        <ele>0.00000</ele>
        <time>2026-05-03T00:19:16Z</time>
      </trkpt>
      <trkpt lat="51.817153" lon="4.498495">
        <ele>0.00000</ele>
        <time>2026-05-03T00:19:17Z</time>
      </trkpt>
      <trkpt lat="51.817104" lon="4.498759">
        <ele>0.00000</ele>
        <time>2026-05-03T00:19:18Z</time>
      </trkpt>
      <trkpt lat="51.817182" lon="4.498848">
        <ele>0.00000</ele>
        <time>2026-05-03T00:19:18Z</time>
      </trkpt>
      <trkpt lat="51.817188" lon="4.499058">
        <ele>0.00000</ele>
        <time>2026-05-03T00:19:19Z</time>
      </trkpt>
      <trkpt lat="51.817014" lon="4.499862">
        <ele>0.00000</ele>
        <time>2026-05-03T00:19:21Z</time>
      </trkpt>
      <trkpt lat="51.816178" lon="4.502566">
        <ele>0.00000</ele>
        <time>2026-05-03T00:19:28Z</time>
      </trkpt>
      <trkpt lat="51.814137" lon="4.508322">
        <ele>0.00000</ele>
        <time>2026-05-03T00:19:43Z</time>
      </trkpt>
      <trkpt lat="51.814137" lon="4.508322">
        <ele>0.00000</ele>
        <time>2026-05-03T00:19:43Z</time>
      </trkpt>
      <trkpt lat="51.813573" lon="4.509957">
        <ele>0.00000</ele>
        <time>2026-05-03T00:19:47Z</time>
      </trkpt>
      <trkpt lat="51.813603" lon="4.510157">
        <ele>0.00000</ele>
        <time>2026-05-03T00:19:47Z</time>
      </trkpt>
      <trkpt lat="51.813556" lon="4.510489">
        <ele>0.00000</ele>
        <time>2026-05-03T00:19:48Z</time>
      </trkpt>
      <trkpt lat="51.813125" lon="4.511807">
        <ele>0.00000</ele>
        <time>2026-05-03T00:19:52Z</time>
      </trkpt>
      <trkpt lat="51.811408" lon="4.519291">
        <ele>0.00000</ele>
        <time>2026-05-03T00:20:10Z</time>
      </trkpt>
      <trkpt lat="51.811334" lon="4.519585">
        <ele>0.00000</ele>
        <time>2026-05-03T00:20:10Z</time>
      </trkpt>
      <trkpt lat="51.811263" lon="4.519665">
        <ele>0.00000</ele>
        <time>2026-05-03T00:20:11Z</time>
      </trkpt>
      <trkpt lat="51.811218" lon="4.520046">
        <ele>0.00000</ele>
        <time>2026-05-03T00:20:12Z</time>
      </trkpt>
      <trkpt lat="51.811296" lon="4.520719">
        <ele>0.00000</ele>
        <time>2026-05-03T00:20:13Z</time>
      </trkpt>
      <trkpt lat="51.811032" lon="4.521057">
        <ele>0.00000</ele>
        <time>2026-05-03T00:20:14Z</time>
      </trkpt>
      <trkpt lat="51.810843" lon="4.521507">
        <ele>0.00000</ele>
        <time>2026-05-03T00:20:16Z</time>
      </trkpt>
      <trkpt lat="51.810575" lon="4.521913">
        <ele>0.00000</ele>
        <time>2026-05-03T00:20:17Z</time>
      </trkpt>
      <trkpt lat="51.810215" lon="4.522225">
        <ele>0.00000</ele>
        <time>2026-05-03T00:20:18Z</time>
      </trkpt>
      <trkpt lat="51.809758" lon="4.522259">
        <ele>0.00000</ele>
        <time>2026-05-03T00:20:20Z</time>
      </trkpt>
      <trkpt lat="51.808937" lon="4.521919">
        <ele>0.00000</ele>
        <time>2026-05-03T00:20:23Z</time>
      </trkpt>
      <trkpt lat="51.808937" lon="4.521919">
        <ele>0.00000</ele>
        <time>2026-05-03T00:20:23Z</time>
      </trkpt>
      <trkpt lat="51.805436" lon="4.519683">
        <ele>0.00000</ele>
        <time>2026-05-03T00:20:37Z</time>
      </trkpt>
      <trkpt lat="51.805127" lon="4.519554">
        <ele>0.00000</ele>
        <time>2026-05-03T00:20:38Z</time>
      </trkpt>
      <trkpt lat="51.804861" lon="4.519543">
        <ele>0.00000</ele>
        <time>2026-05-03T00:20:39Z</time>
      </trkpt>
      <trkpt lat="51.80441" lon="4.519254">
        <ele>0.00000</ele>
        <time>2026-05-03T00:20:41Z</time>
      </trkpt>
      <trkpt lat="51.803067" lon="4.524778">
        <ele>0.00000</ele>
        <time>2026-05-03T00:20:54Z</time>
      </trkpt>
      <trkpt lat="51.803067" lon="4.524778">
        <ele>0.00000</ele>
        <time>2026-05-03T00:20:54Z</time>
      </trkpt>
      <trkpt lat="51.802365" lon="4.52777">
        <ele>0.00000</ele>
        <time>2026-05-03T00:21:02Z</time>
      </trkpt>
      <trkpt lat="51.801615" lon="4.529935">
        <ele>0.00000</ele>
        <time>2026-05-03T00:21:07Z</time>
      </trkpt>
      <trkpt lat="51.800088" lon="4.53316">
        <ele>0.00000</ele>
        <time>2026-05-03T00:21:16Z</time>
      </trkpt>
      <trkpt lat="51.799423" lon="4.535004">
        <ele>0.00000</ele>
        <time>2026-05-03T00:21:21Z</time>
      </trkpt>
      <trkpt lat="51.799089" lon="4.535568">
        <ele>0.00000</ele>
        <time>2026-05-03T00:21:23Z</time>
      </trkpt>
      <trkpt lat="51.798045" lon="4.537885">
        <ele>0.00000</ele>
        <time>2026-05-03T00:21:30Z</time>
      </trkpt>
      <trkpt lat="51.798045" lon="4.537885">
        <ele>0.00000</ele>
        <time>2026-05-03T00:21:30Z</time>
      </trkpt>
      <trkpt lat="51.797886" lon="4.538715">
        <ele>0.00000</ele>
        <time>2026-05-03T00:21:31Z</time>
      </trkpt>
      <trkpt lat="51.796639" lon="4.540496">
        <ele>0.00000</ele>
        <time>2026-05-03T00:21:38Z</time>
      </trkpt>
      <trkpt lat="51.794672" lon="4.542736">
        <ele>0.00000</ele>
        <time>2026-05-03T00:21:46Z</time>
      </trkpt>
      <trkpt lat="51.794444" lon="4.543132">
        <ele>0.00000</ele>
        <time>2026-05-03T00:21:48Z</time>
      </trkpt>
      <trkpt lat="51.793456" lon="4.544277">
        <ele>0.00000</ele>
        <time>2026-05-03T00:21:52Z</time>
      </trkpt>
      <trkpt lat="51.791472" lon="4.547592">
        <ele>0.00000</ele>
        <time>2026-05-03T00:22:03Z</time>
      </trkpt>
      <trkpt lat="51.791472" lon="4.547592">
        <ele>0.00000</ele>
        <time>2026-05-03T00:22:03Z</time>
      </trkpt>
      <trkpt lat="51.790977" lon="4.548433">
        <ele>0.00000</ele>
        <time>2026-05-03T00:22:05Z</time>
      </trkpt>
      <trkpt lat="51.790832" lon="4.548516">
        <ele>0.00000</ele>
        <time>2026-05-03T00:22:06Z</time>
      </trkpt>
      <trkpt lat="51.789386" lon="4.550962">
        <ele>0.00000</ele>
        <time>2026-05-03T00:22:13Z</time>
      </trkpt>
      <trkpt lat="51.789258" lon="4.551093">
        <ele>0.00000</ele>
        <time>2026-05-03T00:22:14Z</time>
      </trkpt>
      <trkpt lat="51.788785" lon="4.552">
        <ele>0.00000</ele>
        <time>2026-05-03T00:22:17Z</time>
      </trkpt>
      <trkpt lat="51.78846" lon="4.552674">
        <ele>0.00000</ele>
        <time>2026-05-03T00:22:19Z</time>
      </trkpt>
      <trkpt lat="51.788494" lon="4.552849">
        <ele>0.00000</ele>
        <time>2026-05-03T00:22:19Z</time>
      </trkpt>
      <trkpt lat="51.788331" lon="4.553107">
        <ele>0.00000</ele>
        <time>2026-05-03T00:22:20Z</time>
      </trkpt>
      <trkpt lat="51.788127" lon="4.55356">
        <ele>0.00000</ele>
        <time>2026-05-03T00:22:21Z</time>
      </trkpt>
      <trkpt lat="51.787709" lon="4.554858">
        <ele>0.00000</ele>
        <time>2026-05-03T00:22:24Z</time>
      </trkpt>
      <trkpt lat="51.787557" lon="4.555303">
        <ele>0.00000</ele>
        <time>2026-05-03T00:22:26Z</time>
      </trkpt>
      <trkpt lat="51.7875" lon="4.555398">
        <ele>0.00000</ele>
        <time>2026-05-03T00:22:26Z</time>
      </trkpt>
      <trkpt lat="51.787473" lon="4.55567">
        <ele>0.00000</ele>
        <time>2026-05-03T00:22:26Z</time>
      </trkpt>
      <trkpt lat="51.7875085" lon="4.5557642">
        <ele>0.00000</ele>
        <time>2026-05-03T00:22:27Z</time>
      </trkpt>
      <trkpt lat="51.78752" lon="4.55591">
        <ele>0.00000</ele>
        <time>2026-05-03T00:22:27Z</time>
      </trkpt>
      <trkpt lat="51.78759" lon="4.55678">
        <ele>0.00000</ele>
        <time>2026-05-03T00:22:29Z</time>
      </trkpt>
      <trkpt lat="51.78581" lon="4.55738">
        <ele>0.00000</ele>
        <time>2026-05-03T00:22:36Z</time>
      </trkpt>
      <trkpt lat="51.78518" lon="4.55745">
        <ele>0.00000</ele>
        <time>2026-05-03T00:22:38Z</time>
      </trkpt>
      <trkpt lat="51.78491" lon="4.55744">
        <ele>0.00000</ele>
        <time>2026-05-03T00:22:39Z</time>
      </trkpt>
      <trkpt lat="51.78491" lon="4.55744">
        <ele>0.00000</ele>
        <time>2026-05-03T00:22:39Z</time>
      </trkpt>
      <trkpt lat="51.78466" lon="4.55742">
        <ele>0.00000</ele>
        <time>2026-05-03T00:22:40Z</time>
      </trkpt>
      <trkpt lat="51.78425" lon="4.55736">
        <ele>0.00000</ele>
        <time>2026-05-03T00:22:41Z</time>
      </trkpt>
      <trkpt lat="51.78411" lon="4.55731">
        <ele>0.00000</ele>
        <time>2026-05-03T00:22:42Z</time>
      </trkpt>
      <trkpt lat="51.78398" lon="4.55722">
        <ele>0.00000</ele>
        <time>2026-05-03T00:22:42Z</time>
      </trkpt>
      <trkpt lat="51.78375" lon="4.557">
        <ele>0.00000</ele>
        <time>2026-05-03T00:22:43Z</time>
      </trkpt>
      <trkpt lat="51.78311" lon="4.55612">
        <ele>0.00000</ele>
        <time>2026-05-03T00:22:47Z</time>
      </trkpt>
      <trkpt lat="51.78304" lon="4.55599">
        <ele>0.00000</ele>
        <time>2026-05-03T00:22:47Z</time>
      </trkpt>
      <trkpt lat="51.78305" lon="4.55552">
        <ele>0.00000</ele>
        <time>2026-05-03T00:22:48Z</time>
      </trkpt>
      <trkpt lat="51.78304" lon="4.55494">
        <ele>0.00000</ele>
        <time>2026-05-03T00:22:49Z</time>
      </trkpt>
      <trkpt lat="51.78298" lon="4.55441">
        <ele>0.00000</ele>
        <time>2026-05-03T00:22:51Z</time>
      </trkpt>
      <trkpt lat="51.78276" lon="4.55373">
        <ele>0.00000</ele>
        <time>2026-05-03T00:22:52Z</time>
      </trkpt>
      <trkpt lat="51.78253" lon="4.55334">
        <ele>0.00000</ele>
        <time>2026-05-03T00:22:53Z</time>
      </trkpt>
      <trkpt lat="51.78251" lon="4.55333">
        <ele>0.00000</ele>
        <time>2026-05-03T00:22:54Z</time>
      </trkpt>
      <trkpt lat="51.7823574" lon="4.5535619">
        <ele>0.00000</ele>
        <time>2026-05-03T00:22:54Z</time>
      </trkpt>
      <trkpt lat="51.78221" lon="4.55355">
        <ele>0.00000</ele>
        <time>2026-05-03T00:22:55Z</time>
      </trkpt>
      <trkpt lat="51.78212" lon="4.55356">
        <ele>0.00000</ele>
        <time>2026-05-03T00:22:55Z</time>
      </trkpt>
      <trkpt lat="51.78204" lon="4.55352">
        <ele>0.00000</ele>
        <time>2026-05-03T00:22:56Z</time>
      </trkpt>
      <trkpt lat="51.78185" lon="4.55328">
        <ele>0.00000</ele>
        <time>2026-05-03T00:22:56Z</time>
      </trkpt>
      <trkpt lat="51.78169" lon="4.55301">
        <ele>0.00000</ele>
        <time>2026-05-03T00:22:57Z</time>
      </trkpt>
      <trkpt lat="51.78156" lon="4.55288">
        <ele>0.00000</ele>
        <time>2026-05-03T00:22:58Z</time>
      </trkpt>
      <trkpt lat="51.7814" lon="4.55279">
        <ele>0.00000</ele>
        <time>2026-05-03T00:22:58Z</time>
      </trkpt>
      <trkpt lat="51.78076" lon="4.55288">
        <ele>0.00000</ele>
        <time>2026-05-03T00:23:01Z</time>
      </trkpt>
      <trkpt lat="51.78064" lon="4.5529">
        <ele>0.00000</ele>
        <time>2026-05-03T00:23:01Z</time>
      </trkpt>
      <trkpt lat="51.78051" lon="4.55287">
        <ele>0.00000</ele>
        <time>2026-05-03T00:23:02Z</time>
      </trkpt>
      <trkpt lat="51.78038" lon="4.55278">
        <ele>0.00000</ele>
        <time>2026-05-03T00:23:02Z</time>
      </trkpt>
      <trkpt lat="51.78012" lon="4.55247">
        <ele>0.00000</ele>
        <time>2026-05-03T00:23:03Z</time>
      </trkpt>
      <trkpt lat="51.77906" lon="4.55109">
        <ele>0.00000</ele>
        <time>2026-05-03T00:23:08Z</time>
      </trkpt>
      <trkpt lat="51.77786" lon="4.54974">
        <ele>0.00000</ele>
        <time>2026-05-03T00:23:14Z</time>
      </trkpt>
      <trkpt lat="51.77786" lon="4.54974">
        <ele>0.00000</ele>
        <time>2026-05-03T00:23:14Z</time>
      </trkpt>
      <trkpt lat="51.77743" lon="4.54921">
        <ele>0.00000</ele>
        <time>2026-05-03T00:23:16Z</time>
      </trkpt>
      <trkpt lat="51.77689" lon="4.54846">
        <ele>0.00000</ele>
        <time>2026-05-03T00:23:18Z</time>
      </trkpt>
      <trkpt lat="51.77582" lon="4.54686">
        <ele>0.00000</ele>
        <time>2026-05-03T00:23:24Z</time>
      </trkpt>
      <trkpt lat="51.77573" lon="4.54678">
        <ele>0.00000</ele>
        <time>2026-05-03T00:23:24Z</time>
      </trkpt>
      <trkpt lat="51.77561" lon="4.54672">
        <ele>0.00000</ele>
        <time>2026-05-03T00:23:24Z</time>
      </trkpt>
      <trkpt lat="51.77527" lon="4.54673">
        <ele>0.00000</ele>
        <time>2026-05-03T00:23:26Z</time>
      </trkpt>
      <trkpt lat="51.77513" lon="4.54673">
        <ele>0.00000</ele>
        <time>2026-05-03T00:23:26Z</time>
      </trkpt>
      <trkpt lat="51.77499" lon="4.54668">
        <ele>0.00000</ele>
        <time>2026-05-03T00:23:27Z</time>
      </trkpt>
      <trkpt lat="51.77475" lon="4.54652">
        <ele>0.00000</ele>
        <time>2026-05-03T00:23:28Z</time>
      </trkpt>
      <trkpt lat="51.774513" lon="4.546207">
        <ele>0.00000</ele>
        <time>2026-05-03T00:23:29Z</time>
      </trkpt>
      <trkpt lat="51.774445" lon="4.546025">
        <ele>0.00000</ele>
        <time>2026-05-03T00:23:29Z</time>
      </trkpt>
      <trkpt lat="51.774774" lon="4.545092">
        <ele>0.00000</ele>
        <time>2026-05-03T00:23:32Z</time>
      </trkpt>
      <trkpt lat="51.774911" lon="4.544388">
        <ele>0.00000</ele>
        <time>2026-05-03T00:23:33Z</time>
      </trkpt>
      <trkpt lat="51.775179" lon="4.543469">
        <ele>0.00000</ele>
        <time>2026-05-03T00:23:36Z</time>
      </trkpt>
      <trkpt lat="51.775884" lon="4.541902">
        <ele>0.00000</ele>
        <time>2026-05-03T00:23:40Z</time>
      </trkpt>
      <trkpt lat="51.77719" lon="4.53978">
        <ele>0.00000</ele>
        <time>2026-05-03T00:23:47Z</time>
      </trkpt>
      <trkpt lat="51.778354" lon="4.538364">
        <ele>0.00000</ele>
        <time>2026-05-03T00:23:52Z</time>
      </trkpt>
      <trkpt lat="51.779192" lon="4.537878">
        <ele>0.00000</ele>
        <time>2026-05-03T00:23:56Z</time>
      </trkpt>
      <trkpt lat="51.779755" lon="4.537346">
        <ele>0.00000</ele>
        <time>2026-05-03T00:23:58Z</time>
      </trkpt>
      <trkpt lat="51.780088" lon="4.536569">
        <ele>0.00000</ele>
        <time>2026-05-03T00:24:00Z</time>
      </trkpt>
      <trkpt lat="51.780252" lon="4.535956">
        <ele>0.00000</ele>
        <time>2026-05-03T00:24:02Z</time>
      </trkpt>
      <trkpt lat="51.78033" lon="4.535418">
        <ele>0.00000</ele>
        <time>2026-05-03T00:24:03Z</time>
      </trkpt>
      <trkpt lat="51.780556" lon="4.532084">
        <ele>0.00000</ele>
        <time>2026-05-03T00:24:10Z</time>
      </trkpt>
      <trkpt lat="51.780612" lon="4.529753">
        <ele>0.00000</ele>
        <time>2026-05-03T00:24:16Z</time>
      </trkpt>
      <trkpt lat="51.780612" lon="4.529753">
        <ele>0.00000</ele>
        <time>2026-05-03T00:24:16Z</time>
      </trkpt>
      <trkpt lat="51.780711" lon="4.527101">
        <ele>0.00000</ele>
        <time>2026-05-03T00:24:22Z</time>
      </trkpt>
      <trkpt lat="51.78094" lon="4.526098">
        <ele>0.00000</ele>
        <time>2026-05-03T00:24:24Z</time>
      </trkpt>
      <trkpt lat="51.781379" lon="4.525015">
        <ele>0.00000</ele>
        <time>2026-05-03T00:24:27Z</time>
      </trkpt>
      <trkpt lat="51.783361" lon="4.522382">
        <ele>0.00000</ele>
        <time>2026-05-03T00:24:36Z</time>
      </trkpt>
      <trkpt lat="51.783697" lon="4.52132">
        <ele>0.00000</ele>
        <time>2026-05-03T00:24:39Z</time>
      </trkpt>
      <trkpt lat="51.783756" lon="4.519402">
        <ele>0.00000</ele>
        <time>2026-05-03T00:24:44Z</time>
      </trkpt>
      <trkpt lat="51.783935" lon="4.518477">
        <ele>0.00000</ele>
        <time>2026-05-03T00:24:46Z</time>
      </trkpt>
      <trkpt lat="51.784305" lon="4.517936">
        <ele>0.00000</ele>
        <time>2026-05-03T00:24:48Z</time>
      </trkpt>
      <trkpt lat="51.784724" lon="4.517608">
        <ele>0.00000</ele>
        <time>2026-05-03T00:24:49Z</time>
      </trkpt>
      <trkpt lat="51.786815" lon="4.51689">
        <ele>0.00000</ele>
        <time>2026-05-03T00:24:57Z</time>
      </trkpt>
      <trkpt lat="51.787424" lon="4.516029">
        <ele>0.00000</ele>
        <time>2026-05-03T00:25:00Z</time>
      </trkpt>
      <trkpt lat="51.787093" lon="4.511751">
        <ele>0.00000</ele>
        <time>2026-05-03T00:25:10Z</time>
      </trkpt>
      <trkpt lat="51.78673" lon="4.503113">
        <ele>0.00000</ele>
        <time>2026-05-03T00:25:29Z</time>
      </trkpt>
      <trkpt lat="51.786624" lon="4.502944">
        <ele>0.00000</ele>
        <time>2026-05-03T00:25:30Z</time>
      </trkpt>
      <trkpt lat="51.784006" lon="4.502063">
        <ele>0.00000</ele>
        <time>2026-05-03T00:25:40Z</time>
      </trkpt>
      <trkpt lat="51.783137" lon="4.499502">
        <ele>0.00000</ele>
        <time>2026-05-03T00:25:46Z</time>
      </trkpt>
      <trkpt lat="51.782684" lon="4.497139">
        <ele>0.00000</ele>
        <time>2026-05-03T00:25:52Z</time>
      </trkpt>
      <trkpt lat="51.78166" lon="4.495323">
        <ele>0.00000</ele>
        <time>2026-05-03T00:25:58Z</time>
      </trkpt>
      <trkpt lat="51.78166" lon="4.495323">
        <ele>0.00000</ele>
        <time>2026-05-03T00:25:58Z</time>
      </trkpt>
      <trkpt lat="51.781153" lon="4.493551">
        <ele>0.00000</ele>
        <time>2026-05-03T00:26:02Z</time>
      </trkpt>
      <trkpt lat="51.780925" lon="4.491204">
        <ele>0.00000</ele>
        <time>2026-05-03T00:26:07Z</time>
      </trkpt>
      <trkpt lat="51.781" lon="4.490454">
        <ele>0.00000</ele>
        <time>2026-05-03T00:26:09Z</time>
      </trkpt>
      <trkpt lat="51.781655" lon="4.487444">
        <ele>0.00000</ele>
        <time>2026-05-03T00:26:16Z</time>
      </trkpt>
      <trkpt lat="51.781666" lon="4.486859">
        <ele>0.00000</ele>
        <time>2026-05-03T00:26:18Z</time>
      </trkpt>
      <trkpt lat="51.779667" lon="4.486985">
        <ele>0.00000</ele>
        <time>2026-05-03T00:26:25Z</time>
      </trkpt>
      <trkpt lat="51.778763" lon="4.486501">
        <ele>0.00000</ele>
        <time>2026-05-03T00:26:28Z</time>
      </trkpt>
      <trkpt lat="51.777768" lon="4.487068">
        <ele>0.00000</ele>
        <time>2026-05-03T00:26:32Z</time>
      </trkpt>
      <trkpt lat="51.77145" lon="4.487547">
        <ele>0.00000</ele>
        <time>2026-05-03T00:26:55Z</time>
      </trkpt>
      <trkpt lat="51.767825" lon="4.48713">
        <ele>0.00000</ele>
        <time>2026-05-03T00:27:09Z</time>
      </trkpt>
      <trkpt lat="51.767825" lon="4.48713">
        <ele>0.00000</ele>
        <time>2026-05-03T00:27:09Z</time>
      </trkpt>
      <trkpt lat="51.76687" lon="4.487165">
        <ele>0.00000</ele>
        <time>2026-05-03T00:27:12Z</time>
      </trkpt>
      <trkpt lat="51.766693" lon="4.48704">
        <ele>0.00000</ele>
        <time>2026-05-03T00:27:13Z</time>
      </trkpt>
      <trkpt lat="51.766578" lon="4.486691">
        <ele>0.00000</ele>
        <time>2026-05-03T00:27:14Z</time>
      </trkpt>
      <trkpt lat="51.766828" lon="4.481392">
        <ele>0.00000</ele>
        <time>2026-05-03T00:27:26Z</time>
      </trkpt>
      <trkpt lat="51.756088" lon="4.479722">
        <ele>0.00000</ele>
        <time>2026-05-03T00:28:05Z</time>
      </trkpt>
      <trkpt lat="51.75507" lon="4.479285">
        <ele>0.00000</ele>
        <time>2026-05-03T00:28:09Z</time>
      </trkpt>
      <trkpt lat="51.757745" lon="4.468899">
        <ele>0.00000</ele>
        <time>2026-05-03T00:28:35Z</time>
      </trkpt>
      <trkpt lat="51.757745" lon="4.468899">
        <ele>0.00000</ele>
        <time>2026-05-03T00:28:35Z</time>
      </trkpt>
      <trkpt lat="51.758892" lon="4.464461">
        <ele>0.00000</ele>
        <time>2026-05-03T00:28:46Z</time>
      </trkpt>
      <trkpt lat="51.760638" lon="4.450902">
        <ele>0.00000</ele>
        <time>2026-05-03T00:29:17Z</time>
      </trkpt>
      <trkpt lat="51.759923" lon="4.44451">
        <ele>0.00000</ele>
        <time>2026-05-03T00:29:32Z</time>
      </trkpt>
      <trkpt lat="51.759923" lon="4.44451">
        <ele>0.00000</ele>
        <time>2026-05-03T00:29:32Z</time>
      </trkpt>
      <trkpt lat="51.759649" lon="4.442363">
        <ele>0.00000</ele>
        <time>2026-05-03T00:29:37Z</time>
      </trkpt>
      <trkpt lat="51.757564" lon="4.440119">
        <ele>0.00000</ele>
        <time>2026-05-03T00:29:46Z</time>
      </trkpt>
      <trkpt lat="51.757446" lon="4.439789">
        <ele>0.00000</ele>
        <time>2026-05-03T00:29:47Z</time>
      </trkpt>
      <trkpt lat="51.757268" lon="4.438245">
        <ele>0.00000</ele>
        <time>2026-05-03T00:29:50Z</time>
      </trkpt>
      <trkpt lat="51.758059" lon="4.434836">
        <ele>0.00000</ele>
        <time>2026-05-03T00:29:59Z</time>
      </trkpt>
      <trkpt lat="51.760354" lon="4.427508">
        <ele>0.00000</ele>
        <time>2026-05-03T00:30:17Z</time>
      </trkpt>
      <trkpt lat="51.760354" lon="4.427508">
        <ele>0.00000</ele>
        <time>2026-05-03T00:30:17Z</time>
      </trkpt>
      <trkpt lat="51.760674" lon="4.426399">
        <ele>0.00000</ele>
        <time>2026-05-03T00:30:20Z</time>
      </trkpt>
      <trkpt lat="51.76026" lon="4.425895">
        <ele>0.00000</ele>
        <time>2026-05-03T00:30:22Z</time>
      </trkpt>
      <trkpt lat="51.751434" lon="4.422754">
        <ele>0.00000</ele>
        <time>2026-05-03T00:30:55Z</time>
      </trkpt>
      <trkpt lat="51.751479" lon="4.422407">
        <ele>0.00000</ele>
        <time>2026-05-03T00:30:56Z</time>
      </trkpt>
      <trkpt lat="51.751178" lon="4.422228">
        <ele>0.00000</ele>
        <time>2026-05-03T00:30:57Z</time>
      </trkpt>
      <trkpt lat="51.750794" lon="4.422508">
        <ele>0.00000</ele>
        <time>2026-05-03T00:30:59Z</time>
      </trkpt>
      <trkpt lat="51.741722" lon="4.419195">
        <ele>0.00000</ele>
        <time>2026-05-03T00:31:33Z</time>
      </trkpt>
      <trkpt lat="51.741582" lon="4.418839">
        <ele>0.00000</ele>
        <time>2026-05-03T00:31:34Z</time>
      </trkpt>
      <trkpt lat="51.742097" lon="4.417038">
        <ele>0.00000</ele>
        <time>2026-05-03T00:31:38Z</time>
      </trkpt>
      <trkpt lat="51.742097" lon="4.417038">
        <ele>0.00000</ele>
        <time>2026-05-03T00:31:38Z</time>
      </trkpt>
      <trkpt lat="51.742707" lon="4.414607">
        <ele>0.00000</ele>
        <time>2026-05-03T00:31:44Z</time>
      </trkpt>
      <trkpt lat="51.742559" lon="4.414246">
        <ele>0.00000</ele>
        <time>2026-05-03T00:31:45Z</time>
      </trkpt>
      <trkpt lat="51.733395" lon="4.413175">
        <ele>0.00000</ele>
        <time>2026-05-03T00:32:19Z</time>
      </trkpt>
      <trkpt lat="51.733107" lon="4.413079">
        <ele>0.00000</ele>
        <time>2026-05-03T00:32:20Z</time>
      </trkpt>
      <trkpt lat="51.733014" lon="4.412705">
        <ele>0.00000</ele>
        <time>2026-05-03T00:32:21Z</time>
      </trkpt>
      <trkpt lat="51.732995" lon="4.412556">
        <ele>0.00000</ele>
        <time>2026-05-03T00:32:21Z</time>
      </trkpt>
      <trkpt lat="51.732921" lon="4.412282">
        <ele>0.00000</ele>
        <time>2026-05-03T00:32:22Z</time>
      </trkpt>
      <trkpt lat="51.73279" lon="4.412">
        <ele>0.00000</ele>
        <time>2026-05-03T00:32:23Z</time>
      </trkpt>
      <trkpt lat="51.73283" lon="4.411929">
        <ele>0.00000</ele>
        <time>2026-05-03T00:32:23Z</time>
      </trkpt>
      <trkpt lat="51.732778" lon="4.411831">
        <ele>0.00000</ele>
        <time>2026-05-03T00:32:23Z</time>
      </trkpt>
      <trkpt lat="51.73266" lon="4.41171">
        <ele>0.00000</ele>
        <time>2026-05-03T00:32:24Z</time>
      </trkpt>
      <trkpt lat="51.73238" lon="4.4113">
        <ele>0.00000</ele>
        <time>2026-05-03T00:32:25Z</time>
      </trkpt>
      <trkpt lat="51.7321" lon="4.41111">
        <ele>0.00000</ele>
        <time>2026-05-03T00:32:26Z</time>
      </trkpt>
      <trkpt lat="51.73133" lon="4.41073">
        <ele>0.00000</ele>
        <time>2026-05-03T00:32:29Z</time>
      </trkpt>
      <trkpt lat="51.73036" lon="4.41019">
        <ele>0.00000</ele>
        <time>2026-05-03T00:32:33Z</time>
      </trkpt>
      <trkpt lat="51.72719" lon="4.40816">
        <ele>0.00000</ele>
        <time>2026-05-03T00:32:45Z</time>
      </trkpt>
      <trkpt lat="51.72719" lon="4.40816">
        <ele>0.00000</ele>
        <time>2026-05-03T00:32:45Z</time>
      </trkpt>
      <trkpt lat="51.72421" lon="4.40628">
        <ele>0.00000</ele>
        <time>2026-05-03T00:32:57Z</time>
      </trkpt>
      <trkpt lat="51.72392" lon="4.40617">
        <ele>0.00000</ele>
        <time>2026-05-03T00:32:58Z</time>
      </trkpt>
      <trkpt lat="51.72385" lon="4.40611">
        <ele>0.00000</ele>
        <time>2026-05-03T00:32:58Z</time>
      </trkpt>
      <trkpt lat="51.72377" lon="4.40602">
        <ele>0.00000</ele>
        <time>2026-05-03T00:32:59Z</time>
      </trkpt>
      <trkpt lat="51.72251" lon="4.40523">
        <ele>0.00000</ele>
        <time>2026-05-03T00:33:04Z</time>
      </trkpt>
      <trkpt lat="51.72127" lon="4.40445">
        <ele>0.00000</ele>
        <time>2026-05-03T00:33:09Z</time>
      </trkpt>
      <trkpt lat="51.72064" lon="4.40395">
        <ele>0.00000</ele>
        <time>2026-05-03T00:33:11Z</time>
      </trkpt>
      <trkpt lat="51.72044" lon="4.40382">
        <ele>0.00000</ele>
        <time>2026-05-03T00:33:12Z</time>
      </trkpt>
      <trkpt lat="51.71906" lon="4.40299">
        <ele>0.00000</ele>
        <time>2026-05-03T00:33:17Z</time>
      </trkpt>
      <trkpt lat="51.71906" lon="4.40299">
        <ele>0.00000</ele>
        <time>2026-05-03T00:33:17Z</time>
      </trkpt>
      <trkpt lat="51.71795" lon="4.40232">
        <ele>0.00000</ele>
        <time>2026-05-03T00:33:22Z</time>
      </trkpt>
      <trkpt lat="51.71697" lon="4.40177">
        <ele>0.00000</ele>
        <time>2026-05-03T00:33:25Z</time>
      </trkpt>
      <trkpt lat="51.71522" lon="4.40079">
        <ele>0.00000</ele>
        <time>2026-05-03T00:33:32Z</time>
      </trkpt>
      <trkpt lat="51.71376" lon="4.39986">
        <ele>0.00000</ele>
        <time>2026-05-03T00:33:38Z</time>
      </trkpt>
      <trkpt lat="51.71376" lon="4.39986">
        <ele>0.00000</ele>
        <time>2026-05-03T00:33:38Z</time>
      </trkpt>
      <trkpt lat="51.71269" lon="4.39918">
        <ele>0.00000</ele>
        <time>2026-05-03T00:33:42Z</time>
      </trkpt>
      <trkpt lat="51.7115" lon="4.39843">
        <ele>0.00000</ele>
        <time>2026-05-03T00:33:47Z</time>
      </trkpt>
      <trkpt lat="51.71058" lon="4.39778">
        <ele>0.00000</ele>
        <time>2026-05-03T00:33:51Z</time>
      </trkpt>
      <trkpt lat="51.71007" lon="4.3975">
        <ele>0.00000</ele>
        <time>2026-05-03T00:33:52Z</time>
      </trkpt>
      <trkpt lat="51.70899" lon="4.39696">
        <ele>0.00000</ele>
        <time>2026-05-03T00:33:57Z</time>
      </trkpt>
      <trkpt lat="51.70848" lon="4.3967">
        <ele>0.00000</ele>
        <time>2026-05-03T00:33:59Z</time>
      </trkpt>
      <trkpt lat="51.70848" lon="4.3967">
        <ele>0.00000</ele>
        <time>2026-05-03T00:33:59Z</time>
      </trkpt>
      <trkpt lat="51.70799" lon="4.39647">
        <ele>0.00000</ele>
        <time>2026-05-03T00:34:00Z</time>
      </trkpt>
      <trkpt lat="51.70767" lon="4.39635">
        <ele>0.00000</ele>
        <time>2026-05-03T00:34:02Z</time>
      </trkpt>
      <trkpt lat="51.7073" lon="4.39625">
        <ele>0.00000</ele>
        <time>2026-05-03T00:34:03Z</time>
      </trkpt>
      <trkpt lat="51.7068" lon="4.39615">
        <ele>0.00000</ele>
        <time>2026-05-03T00:34:05Z</time>
      </trkpt>
      <trkpt lat="51.70642" lon="4.39611">
        <ele>0.00000</ele>
        <time>2026-05-03T00:34:06Z</time>
      </trkpt>
      <trkpt lat="51.70582" lon="4.39611">
        <ele>0.00000</ele>
        <time>2026-05-03T00:34:08Z</time>
      </trkpt>
      <trkpt lat="51.70513" lon="4.39604">
        <ele>0.00000</ele>
        <time>2026-05-03T00:34:11Z</time>
      </trkpt>
      <trkpt lat="51.7045" lon="4.3959">
        <ele>0.00000</ele>
        <time>2026-05-03T00:34:13Z</time>
      </trkpt>
      <trkpt lat="51.703198" lon="4.39582">
        <ele>0.00000</ele>
        <time>2026-05-03T00:34:18Z</time>
      </trkpt>
      <trkpt lat="51.701821" lon="4.395963">
        <ele>0.00000</ele>
        <time>2026-05-03T00:34:23Z</time>
      </trkpt>
      <trkpt lat="51.701603" lon="4.395847">
        <ele>0.00000</ele>
        <time>2026-05-03T00:34:24Z</time>
      </trkpt>
      <trkpt lat="51.701518" lon="4.393583">
        <ele>0.00000</ele>
        <time>2026-05-03T00:34:29Z</time>
      </trkpt>
      <trkpt lat="51.701575" lon="4.39332">
        <ele>0.00000</ele>
        <time>2026-05-03T00:34:30Z</time>
      </trkpt>
      <trkpt lat="51.7018" lon="4.3929">
        <ele>0.00000</ele>
        <time>2026-05-03T00:34:31Z</time>
      </trkpt>
      <trkpt lat="51.701866" lon="4.392659">
        <ele>0.00000</ele>
        <time>2026-05-03T00:34:32Z</time>
      </trkpt>
      <trkpt lat="51.701881" lon="4.392291">
        <ele>0.00000</ele>
        <time>2026-05-03T00:34:32Z</time>
      </trkpt>
      <trkpt lat="51.701815" lon="4.391991">
        <ele>0.00000</ele>
        <time>2026-05-03T00:34:33Z</time>
      </trkpt>
      <trkpt lat="51.701003" lon="4.390441">
        <ele>0.00000</ele>
        <time>2026-05-03T00:34:38Z</time>
      </trkpt>
      <trkpt lat="51.700781" lon="4.3904">
        <ele>0.00000</ele>
        <time>2026-05-03T00:34:39Z</time>
      </trkpt>
      <trkpt lat="51.700674" lon="4.390462">
        <ele>0.00000</ele>
        <time>2026-05-03T00:34:39Z</time>
      </trkpt>
      <trkpt lat="51.700102" lon="4.391111">
        <ele>0.00000</ele>
        <time>2026-05-03T00:34:42Z</time>
      </trkpt>
      <trkpt lat="51.699915" lon="4.391122">
        <ele>0.00000</ele>
        <time>2026-05-03T00:34:42Z</time>
      </trkpt>
      <trkpt lat="51.699818" lon="4.391039">
        <ele>0.00000</ele>
        <time>2026-05-03T00:34:43Z</time>
      </trkpt>
      <trkpt lat="51.698911" lon="4.389701">
        <ele>0.00000</ele>
        <time>2026-05-03T00:34:47Z</time>
      </trkpt>
      <trkpt lat="51.6987" lon="4.3891">
        <ele>0.00000</ele>
        <time>2026-05-03T00:34:49Z</time>
      </trkpt>
      <trkpt lat="51.698657" lon="4.38841">
        <ele>0.00000</ele>
        <time>2026-05-03T00:34:50Z</time>
      </trkpt>
      <trkpt lat="51.698657" lon="4.38841">
        <ele>0.00000</ele>
        <time>2026-05-03T00:34:50Z</time>
      </trkpt>
      <trkpt lat="51.698841" lon="4.387323">
        <ele>0.00000</ele>
        <time>2026-05-03T00:34:53Z</time>
      </trkpt>
      <trkpt lat="51.7002" lon="4.3842">
        <ele>0.00000</ele>
        <time>2026-05-03T00:35:02Z</time>
      </trkpt>
      <trkpt lat="51.7005" lon="4.3831">
        <ele>0.00000</ele>
        <time>2026-05-03T00:35:04Z</time>
      </trkpt>
      <trkpt lat="51.7008" lon="4.3813">
        <ele>0.00000</ele>
        <time>2026-05-03T00:35:09Z</time>
      </trkpt>
      <trkpt lat="51.70138" lon="4.363994">
        <ele>0.00000</ele>
        <time>2026-05-03T00:35:48Z</time>
      </trkpt>
      <trkpt lat="51.70138" lon="4.363994">
        <ele>0.00000</ele>
        <time>2026-05-03T00:35:48Z</time>
      </trkpt>
      <trkpt lat="51.7016" lon="4.3525">
        <ele>0.00000</ele>
        <time>2026-05-03T00:36:14Z</time>
      </trkpt>
      <trkpt lat="51.701786" lon="4.330639">
        <ele>0.00000</ele>
        <time>2026-05-03T00:37:04Z</time>
      </trkpt>
      <trkpt lat="51.701786" lon="4.330639">
        <ele>0.00000</ele>
        <time>2026-05-03T00:37:04Z</time>
      </trkpt>
      <trkpt lat="51.70182" lon="4.325801">
        <ele>0.00000</ele>
        <time>2026-05-03T00:37:15Z</time>
      </trkpt>
      <trkpt lat="51.701643" lon="4.324006">
        <ele>0.00000</ele>
        <time>2026-05-03T00:37:19Z</time>
      </trkpt>
      <trkpt lat="51.701643" lon="4.324006">
        <ele>0.00000</ele>
        <time>2026-05-03T00:37:19Z</time>
      </trkpt>
      <trkpt lat="51.701511" lon="4.322808">
        <ele>0.00000</ele>
        <time>2026-05-03T00:37:21Z</time>
      </trkpt>
      <trkpt lat="51.701302" lon="4.322431">
        <ele>0.00000</ele>
        <time>2026-05-03T00:37:23Z</time>
      </trkpt>
      <trkpt lat="51.693477" lon="4.316043">
        <ele>0.00000</ele>
        <time>2026-05-03T00:37:55Z</time>
      </trkpt>
      <trkpt lat="51.693477" lon="4.316043">
        <ele>0.00000</ele>
        <time>2026-05-03T00:37:55Z</time>
      </trkpt>
      <trkpt lat="51.692389" lon="4.315147">
        <ele>0.00000</ele>
        <time>2026-05-03T00:37:59Z</time>
      </trkpt>
      <trkpt lat="51.6965" lon="4.3019">
        <ele>0.00000</ele>
        <time>2026-05-03T00:38:33Z</time>
      </trkpt>
      <trkpt lat="51.697211" lon="4.299771">
        <ele>0.00000</ele>
        <time>2026-05-03T00:38:38Z</time>
      </trkpt>
      <trkpt lat="51.697517" lon="4.298863">
        <ele>0.00000</ele>
        <time>2026-05-03T00:38:41Z</time>
      </trkpt>
      <trkpt lat="51.694662" lon="4.29634">
        <ele>0.00000</ele>
        <time>2026-05-03T00:38:53Z</time>
      </trkpt>
      <trkpt lat="51.6945" lon="4.295984">
        <ele>0.00000</ele>
        <time>2026-05-03T00:38:54Z</time>
      </trkpt>
      <trkpt lat="51.694471" lon="4.2957">
        <ele>0.00000</ele>
        <time>2026-05-03T00:38:54Z</time>
      </trkpt>
      <trkpt lat="51.694373" lon="4.29322">
        <ele>0.00000</ele>
        <time>2026-05-03T00:39:00Z</time>
      </trkpt>
      <trkpt lat="51.694373" lon="4.29322">
        <ele>0.00000</ele>
        <time>2026-05-03T00:39:00Z</time>
      </trkpt>
      <trkpt lat="51.694357" lon="4.292808">
        <ele>0.00000</ele>
        <time>2026-05-03T00:39:01Z</time>
      </trkpt>
      <trkpt lat="51.694079" lon="4.292752">
        <ele>0.00000</ele>
        <time>2026-05-03T00:39:02Z</time>
      </trkpt>
      <trkpt lat="51.693729" lon="4.292508">
        <ele>0.00000</ele>
        <time>2026-05-03T00:39:03Z</time>
      </trkpt>
      <trkpt lat="51.69359" lon="4.292307">
        <ele>0.00000</ele>
        <time>2026-05-03T00:39:04Z</time>
      </trkpt>
      <trkpt lat="51.693393" lon="4.291774">
        <ele>0.00000</ele>
        <time>2026-05-03T00:39:05Z</time>
      </trkpt>
      <trkpt lat="51.692906" lon="4.2895">
        <ele>0.00000</ele>
        <time>2026-05-03T00:39:11Z</time>
      </trkpt>
      <trkpt lat="51.692438" lon="4.286322">
        <ele>0.00000</ele>
        <time>2026-05-03T00:39:18Z</time>
      </trkpt>
      <trkpt lat="51.692409" lon="4.284907">
        <ele>0.00000</ele>
        <time>2026-05-03T00:39:21Z</time>
      </trkpt>
      <trkpt lat="51.691195" lon="4.282371">
        <ele>0.00000</ele>
        <time>2026-05-03T00:39:29Z</time>
      </trkpt>
      <trkpt lat="51.690979" lon="4.282158">
        <ele>0.00000</ele>
        <time>2026-05-03T00:39:30Z</time>
      </trkpt>
      <trkpt lat="51.688071" lon="4.281145">
        <ele>0.00000</ele>
        <time>2026-05-03T00:39:41Z</time>
      </trkpt>
      <trkpt lat="51.688071" lon="4.281145">
        <ele>0.00000</ele>
        <time>2026-05-03T00:39:41Z</time>
      </trkpt>
      <trkpt lat="51.687442" lon="4.280848">
        <ele>0.00000</ele>
        <time>2026-05-03T00:39:43Z</time>
      </trkpt>
      <trkpt lat="51.687941" lon="4.279451">
        <ele>0.00000</ele>
        <time>2026-05-03T00:39:47Z</time>
      </trkpt>
      <trkpt lat="51.690395" lon="4.273181">
        <ele>0.00000</ele>
        <time>2026-05-03T00:40:03Z</time>
      </trkpt>
      <trkpt lat="51.690811" lon="4.272381">
        <ele>0.00000</ele>
        <time>2026-05-03T00:40:06Z</time>
      </trkpt>
      <trkpt lat="51.691124" lon="4.271382">
        <ele>0.00000</ele>
        <time>2026-05-03T00:40:08Z</time>
      </trkpt>
      <trkpt lat="51.691811" lon="4.270062">
        <ele>0.00000</ele>
        <time>2026-05-03T00:40:12Z</time>
      </trkpt>
      <trkpt lat="51.692996" lon="4.268302">
        <ele>0.00000</ele>
        <time>2026-05-03T00:40:18Z</time>
      </trkpt>
      <trkpt lat="51.692996" lon="4.268302">
        <ele>0.00000</ele>
        <time>2026-05-03T00:40:18Z</time>
      </trkpt>
      <trkpt lat="51.6932" lon="4.267985">
        <ele>0.00000</ele>
        <time>2026-05-03T00:40:19Z</time>
      </trkpt>
      <trkpt lat="51.69374" lon="4.267466">
        <ele>0.00000</ele>
        <time>2026-05-03T00:40:22Z</time>
      </trkpt>
      <trkpt lat="51.694369" lon="4.267242">
        <ele>0.00000</ele>
        <time>2026-05-03T00:40:24Z</time>
      </trkpt>
      <trkpt lat="51.694518" lon="4.266949">
        <ele>0.00000</ele>
        <time>2026-05-03T00:40:25Z</time>
      </trkpt>
      <trkpt lat="51.694636" lon="4.266611">
        <ele>0.00000</ele>
        <time>2026-05-03T00:40:26Z</time>
      </trkpt>
      <trkpt lat="51.695543" lon="4.265457">
        <ele>0.00000</ele>
        <time>2026-05-03T00:40:30Z</time>
      </trkpt>
      <trkpt lat="51.696966" lon="4.263978">
        <ele>0.00000</ele>
        <time>2026-05-03T00:40:36Z</time>
      </trkpt>
      <trkpt lat="51.696966" lon="4.263978">
        <ele>0.00000</ele>
        <time>2026-05-03T00:40:36Z</time>
      </trkpt>
      <trkpt lat="51.699174" lon="4.261675">
        <ele>0.00000</ele>
        <time>2026-05-03T00:40:46Z</time>
      </trkpt>
      <trkpt lat="51.701704" lon="4.259176">
        <ele>0.00000</ele>
        <time>2026-05-03T00:40:57Z</time>
      </trkpt>
      <trkpt lat="51.702685" lon="4.261682">
        <ele>0.00000</ele>
        <time>2026-05-03T00:41:03Z</time>
      </trkpt>
      <trkpt lat="51.703427" lon="4.262885">
        <ele>0.00000</ele>
        <time>2026-05-03T00:41:07Z</time>
      </trkpt>
      <trkpt lat="51.703427" lon="4.262885">
        <ele>0.00000</ele>
        <time>2026-05-03T00:41:07Z</time>
      </trkpt>
      <trkpt lat="51.704029" lon="4.263576">
        <ele>0.00000</ele>
        <time>2026-05-03T00:41:10Z</time>
      </trkpt>
      <trkpt lat="51.704055" lon="4.264057">
        <ele>0.00000</ele>
        <time>2026-05-03T00:41:11Z</time>
      </trkpt>
      <trkpt lat="51.706385" lon="4.263678">
        <ele>0.00000</ele>
        <time>2026-05-03T00:41:20Z</time>
      </trkpt>
      <trkpt lat="51.706843" lon="4.263832">
        <ele>0.00000</ele>
        <time>2026-05-03T00:41:21Z</time>
      </trkpt>
      <trkpt lat="51.707564" lon="4.263796">
        <ele>0.00000</ele>
        <time>2026-05-03T00:41:24Z</time>
      </trkpt>
      <trkpt lat="51.712154" lon="4.261626">
        <ele>0.00000</ele>
        <time>2026-05-03T00:41:41Z</time>
      </trkpt>
      <trkpt lat="51.713114" lon="4.260973">
        <ele>0.00000</ele>
        <time>2026-05-03T00:41:45Z</time>
      </trkpt>
      <trkpt lat="51.713114" lon="4.260973">
        <ele>0.00000</ele>
        <time>2026-05-03T00:41:45Z</time>
      </trkpt>
      <trkpt lat="51.715147" lon="4.259521">
        <ele>0.00000</ele>
        <time>2026-05-03T00:41:53Z</time>
      </trkpt>
      <trkpt lat="51.71565" lon="4.259242">
        <ele>0.00000</ele>
        <time>2026-05-03T00:41:55Z</time>
      </trkpt>
      <trkpt lat="51.716152" lon="4.259054">
        <ele>0.00000</ele>
        <time>2026-05-03T00:41:57Z</time>
      </trkpt>
      <trkpt lat="51.716657" lon="4.258981">
        <ele>0.00000</ele>
        <time>2026-05-03T00:41:59Z</time>
      </trkpt>
      <trkpt lat="51.718368" lon="4.258898">
        <ele>0.00000</ele>
        <time>2026-05-03T00:42:05Z</time>
      </trkpt>
      <trkpt lat="51.718837" lon="4.259306">
        <ele>0.00000</ele>
        <time>2026-05-03T00:42:07Z</time>
      </trkpt>
      <trkpt lat="51.719102" lon="4.258871">
        <ele>0.00000</ele>
        <time>2026-05-03T00:42:09Z</time>
      </trkpt>
      <trkpt lat="51.720066" lon="4.25851">
        <ele>0.00000</ele>
        <time>2026-05-03T00:42:12Z</time>
      </trkpt>
      <trkpt lat="51.720615" lon="4.257869">
        <ele>0.00000</ele>
        <time>2026-05-03T00:42:15Z</time>
      </trkpt>
      <trkpt lat="51.721679" lon="4.255859">
        <ele>0.00000</ele>
        <time>2026-05-03T00:42:21Z</time>
      </trkpt>
      <trkpt lat="51.724704" lon="4.250987">
        <ele>0.00000</ele>
        <time>2026-05-03T00:42:36Z</time>
      </trkpt>
      <trkpt lat="51.724704" lon="4.250987">
        <ele>0.00000</ele>
        <time>2026-05-03T00:42:36Z</time>
      </trkpt>
      <trkpt lat="51.725626" lon="4.249317">
        <ele>0.00000</ele>
        <time>2026-05-03T00:42:41Z</time>
      </trkpt>
      <trkpt lat="51.726285" lon="4.247307">
        <ele>0.00000</ele>
        <time>2026-05-03T00:42:47Z</time>
      </trkpt>
      <trkpt lat="51.726827" lon="4.244498">
        <ele>0.00000</ele>
        <time>2026-05-03T00:42:53Z</time>
      </trkpt>
      <trkpt lat="51.726886" lon="4.242274">
        <ele>0.00000</ele>
        <time>2026-05-03T00:42:58Z</time>
      </trkpt>
      <trkpt lat="51.727071" lon="4.241387">
        <ele>0.00000</ele>
        <time>2026-05-03T00:43:00Z</time>
      </trkpt>
      <trkpt lat="51.727391" lon="4.240893">
        <ele>0.00000</ele>
        <time>2026-05-03T00:43:02Z</time>
      </trkpt>
      <trkpt lat="51.729109" lon="4.239829">
        <ele>0.00000</ele>
        <time>2026-05-03T00:43:09Z</time>
      </trkpt>
      <trkpt lat="51.730668" lon="4.236942">
        <ele>0.00000</ele>
        <time>2026-05-03T00:43:18Z</time>
      </trkpt>
      <trkpt lat="51.731338" lon="4.236891">
        <ele>0.00000</ele>
        <time>2026-05-03T00:43:20Z</time>
      </trkpt>
      <trkpt lat="51.731679" lon="4.236645">
        <ele>0.00000</ele>
        <time>2026-05-03T00:43:21Z</time>
      </trkpt>
      <trkpt lat="51.731785" lon="4.235524">
        <ele>0.00000</ele>
        <time>2026-05-03T00:43:24Z</time>
      </trkpt>
      <trkpt lat="51.732079" lon="4.234912">
        <ele>0.00000</ele>
        <time>2026-05-03T00:43:26Z</time>
      </trkpt>
      <trkpt lat="51.734821" lon="4.223627">
        <ele>0.00000</ele>
        <time>2026-05-03T00:43:53Z</time>
      </trkpt>
      <trkpt lat="51.734821" lon="4.223627">
        <ele>0.00000</ele>
        <time>2026-05-03T00:43:53Z</time>
      </trkpt>
      <trkpt lat="51.736753" lon="4.215439">
        <ele>0.00000</ele>
        <time>2026-05-03T00:44:13Z</time>
      </trkpt>
      <trkpt lat="51.736972" lon="4.215001">
        <ele>0.00000</ele>
        <time>2026-05-03T00:44:14Z</time>
      </trkpt>
      <trkpt lat="51.738708" lon="4.212956">
        <ele>0.00000</ele>
        <time>2026-05-03T00:44:22Z</time>
      </trkpt>
      <trkpt lat="51.7401" lon="4.211057">
        <ele>0.00000</ele>
        <time>2026-05-03T00:44:29Z</time>
      </trkpt>
      <trkpt lat="51.743573" lon="4.20493">
        <ele>0.00000</ele>
        <time>2026-05-03T00:44:48Z</time>
      </trkpt>
      <trkpt lat="51.747826" lon="4.197864">
        <ele>0.00000</ele>
        <time>2026-05-03T00:45:10Z</time>
      </trkpt>
      <trkpt lat="51.748732" lon="4.195119">
        <ele>0.00000</ele>
        <time>2026-05-03T00:45:17Z</time>
      </trkpt>
      <trkpt lat="51.748835" lon="4.194477">
        <ele>0.00000</ele>
        <time>2026-05-03T00:45:19Z</time>
      </trkpt>
      <trkpt lat="51.7488" lon="4.1937">
        <ele>0.00000</ele>
        <time>2026-05-03T00:45:20Z</time>
      </trkpt>
      <trkpt lat="51.748383" lon="4.191966">
        <ele>0.00000</ele>
        <time>2026-05-03T00:45:25Z</time>
      </trkpt>
      <trkpt lat="51.748376" lon="4.191002">
        <ele>0.00000</ele>
        <time>2026-05-03T00:45:27Z</time>
      </trkpt>
      <trkpt lat="51.748376" lon="4.191002">
        <ele>0.00000</ele>
        <time>2026-05-03T00:45:27Z</time>
      </trkpt>
      <trkpt lat="51.748735" lon="4.190037">
        <ele>0.00000</ele>
        <time>2026-05-03T00:45:29Z</time>
      </trkpt>
      <trkpt lat="51.751176" lon="4.18684">
        <ele>0.00000</ele>
        <time>2026-05-03T00:45:41Z</time>
      </trkpt>
      <trkpt lat="51.7527" lon="4.1844">
        <ele>0.00000</ele>
        <time>2026-05-03T00:45:49Z</time>
      </trkpt>
      <trkpt lat="51.7534" lon="4.1826">
        <ele>0.00000</ele>
        <time>2026-05-03T00:45:54Z</time>
      </trkpt>
      <trkpt lat="51.7542" lon="4.18">
        <ele>0.00000</ele>
        <time>2026-05-03T00:46:00Z</time>
      </trkpt>
      <trkpt lat="51.7545" lon="4.1794">
        <ele>0.00000</ele>
        <time>2026-05-03T00:46:02Z</time>
      </trkpt>
      <trkpt lat="51.75531" lon="4.17864">
        <ele>0.00000</ele>
        <time>2026-05-03T00:46:05Z</time>
      </trkpt>
      <trkpt lat="51.755562" lon="4.177846">
        <ele>0.00000</ele>
        <time>2026-05-03T00:46:07Z</time>
      </trkpt>
      <trkpt lat="51.756509" lon="4.176391">
        <ele>0.00000</ele>
        <time>2026-05-03T00:46:12Z</time>
      </trkpt>
      <trkpt lat="51.757627" lon="4.173956">
        <ele>0.00000</ele>
        <time>2026-05-03T00:46:19Z</time>
      </trkpt>
      <trkpt lat="51.757627" lon="4.173956">
        <ele>0.00000</ele>
        <time>2026-05-03T00:46:19Z</time>
      </trkpt>
      <trkpt lat="51.758431" lon="4.172039">
        <ele>0.00000</ele>
        <time>2026-05-03T00:46:24Z</time>
      </trkpt>
      <trkpt lat="51.75927" lon="4.170164">
        <ele>0.00000</ele>
        <time>2026-05-03T00:46:29Z</time>
      </trkpt>
      <trkpt lat="51.7595" lon="4.1695">
        <ele>0.00000</ele>
        <time>2026-05-03T00:46:31Z</time>
      </trkpt>
      <trkpt lat="51.760014" lon="4.168204">
        <ele>0.00000</ele>
        <time>2026-05-03T00:46:35Z</time>
      </trkpt>
      <trkpt lat="51.760066" lon="4.168106">
        <ele>0.00000</ele>
        <time>2026-05-03T00:46:35Z</time>
      </trkpt>
      <trkpt lat="51.76013" lon="4.16809">
        <ele>0.00000</ele>
        <time>2026-05-03T00:46:35Z</time>
      </trkpt>
      <trkpt lat="51.760032" lon="4.167499">
        <ele>0.00000</ele>
        <time>2026-05-03T00:46:37Z</time>
      </trkpt>
      <trkpt lat="51.76023" lon="4.167067">
        <ele>0.00000</ele>
        <time>2026-05-03T00:46:38Z</time>
      </trkpt>
      <trkpt lat="51.760203" lon="4.166975">
        <ele>0.00000</ele>
        <time>2026-05-03T00:46:38Z</time>
      </trkpt>
      <trkpt lat="51.760001" lon="4.166725">
        <ele>0.00000</ele>
        <time>2026-05-03T00:46:39Z</time>
      </trkpt>
      <trkpt lat="51.760001" lon="4.166725">
        <ele>0.00000</ele>
        <time>2026-05-03T00:46:39Z</time>
      </trkpt>
      <trkpt lat="51.759793" lon="4.166466">
        <ele>0.00000</ele>
        <time>2026-05-03T00:46:40Z</time>
      </trkpt>
      <trkpt lat="51.759896" lon="4.165716">
        <ele>0.00000</ele>
        <time>2026-05-03T00:46:42Z</time>
      </trkpt>
      <trkpt lat="51.760235" lon="4.165753">
        <ele>0.00000</ele>
        <time>2026-05-03T00:46:43Z</time>
      </trkpt>
      <trkpt lat="51.760318" lon="4.165667">
        <ele>0.00000</ele>
        <time>2026-05-03T00:46:43Z</time>
      </trkpt>
      <trkpt lat="51.760296" lon="4.165577">
        <ele>0.00000</ele>
        <time>2026-05-03T00:46:44Z</time>
      </trkpt>
      <trkpt lat="51.760296" lon="4.165577">
        <ele>0.00000</ele>
        <time>2026-05-03T00:46:44Z</time>
      </trkpt>
      <trkpt lat="51.760165" lon="4.165276">
        <ele>0.00000</ele>
        <time>2026-05-03T00:46:44Z</time>
      </trkpt>
      <trkpt lat="51.76015" lon="4.165095">
        <ele>0.00000</ele>
        <time>2026-05-03T00:46:45Z</time>
      </trkpt>
      <trkpt lat="51.760167" lon="4.164672">
        <ele>0.00000</ele>
        <time>2026-05-03T00:46:46Z</time>
      </trkpt>
      <trkpt lat="51.760291" lon="4.163389">
        <ele>0.00000</ele>
        <time>2026-05-03T00:46:49Z</time>
      </trkpt>
      <trkpt lat="51.760343" lon="4.163142">
        <ele>0.00000</ele>
        <time>2026-05-03T00:46:49Z</time>
      </trkpt>
      <trkpt lat="51.760619" lon="4.163149">
        <ele>0.00000</ele>
        <time>2026-05-03T00:46:50Z</time>
      </trkpt>
      <trkpt lat="51.760689" lon="4.163079">
        <ele>0.00000</ele>
        <time>2026-05-03T00:46:51Z</time>
      </trkpt>
      <trkpt lat="51.760689" lon="4.163079">
        <ele>0.00000</ele>
        <time>2026-05-03T00:46:51Z</time>
      </trkpt>
      <trkpt lat="51.760727" lon="4.163041">
        <ele>0.00000</ele>
        <time>2026-05-03T00:46:51Z</time>
      </trkpt>
      <trkpt lat="51.76098" lon="4.163084">
        <ele>0.00000</ele>
        <time>2026-05-03T00:46:52Z</time>
      </trkpt>
      <trkpt lat="51.761065" lon="4.163004">
        <ele>0.00000</ele>
        <time>2026-05-03T00:46:52Z</time>
      </trkpt>
      <trkpt lat="51.761985" lon="4.161486">
        <ele>0.00000</ele>
        <time>2026-05-03T00:46:57Z</time>
      </trkpt>
      <trkpt lat="51.762122" lon="4.160284">
        <ele>0.00000</ele>
        <time>2026-05-03T00:47:00Z</time>
      </trkpt>
      <trkpt lat="51.762224" lon="4.159905">
        <ele>0.00000</ele>
        <time>2026-05-03T00:47:01Z</time>
      </trkpt>
      <trkpt lat="51.762224" lon="4.159905">
        <ele>0.00000</ele>
        <time>2026-05-03T00:47:01Z</time>
      </trkpt>
      <trkpt lat="51.762354" lon="4.159426">
        <ele>0.00000</ele>
        <time>2026-05-03T00:47:02Z</time>
      </trkpt>
      <trkpt lat="51.762672" lon="4.158828">
        <ele>0.00000</ele>
        <time>2026-05-03T00:47:04Z</time>
      </trkpt>
      <trkpt lat="51.762997" lon="4.158402">
        <ele>0.00000</ele>
        <time>2026-05-03T00:47:05Z</time>
      </trkpt>
      <trkpt lat="51.763699" lon="4.157777">
        <ele>0.00000</ele>
        <time>2026-05-03T00:47:08Z</time>
      </trkpt>
      <trkpt lat="51.763895" lon="4.157425">
        <ele>0.00000</ele>
        <time>2026-05-03T00:47:09Z</time>
      </trkpt>
      <trkpt lat="51.764094" lon="4.15691">
        <ele>0.00000</ele>
        <time>2026-05-03T00:47:10Z</time>
      </trkpt>
      <trkpt lat="51.764279" lon="4.156095">
        <ele>0.00000</ele>
        <time>2026-05-03T00:47:12Z</time>
      </trkpt>
      <trkpt lat="51.764355" lon="4.155398">
        <ele>0.00000</ele>
        <time>2026-05-03T00:47:14Z</time>
      </trkpt>
      <trkpt lat="51.764403" lon="4.155412">
        <ele>0.00000</ele>
        <time>2026-05-03T00:47:14Z</time>
      </trkpt>
      <trkpt lat="51.764403" lon="4.155412">
        <ele>0.00000</ele>
        <time>2026-05-03T00:47:14Z</time>
      </trkpt>
      <trkpt lat="51.764336" lon="4.15453">
        <ele>0.00000</ele>
        <time>2026-05-03T00:47:16Z</time>
      </trkpt>
      <trkpt lat="51.764005" lon="4.153008">
        <ele>0.00000</ele>
        <time>2026-05-03T00:47:20Z</time>
      </trkpt>
      <trkpt lat="51.763915" lon="4.151548">
        <ele>0.00000</ele>
        <time>2026-05-03T00:47:23Z</time>
      </trkpt>
      <trkpt lat="51.765179" lon="4.151337">
        <ele>0.00000</ele>
        <time>2026-05-03T00:47:28Z</time>
      </trkpt>
      <trkpt lat="51.772435" lon="4.147163">
        <ele>0.00000</ele>
        <time>2026-05-03T00:47:56Z</time>
      </trkpt>
      <trkpt lat="51.773799" lon="4.144332">
        <ele>0.00000</ele>
        <time>2026-05-03T00:48:04Z</time>
      </trkpt>
      <trkpt lat="51.773799" lon="4.144332">
        <ele>0.00000</ele>
        <time>2026-05-03T00:48:04Z</time>
      </trkpt>
      <trkpt lat="51.774266" lon="4.1429">
        <ele>0.00000</ele>
        <time>2026-05-03T00:48:08Z</time>
      </trkpt>
      <trkpt lat="51.77762" lon="4.130156">
        <ele>0.00000</ele>
        <time>2026-05-03T00:48:39Z</time>
      </trkpt>
      <trkpt lat="51.778044" lon="4.128929">
        <ele>0.00000</ele>
        <time>2026-05-03T00:48:42Z</time>
      </trkpt>
      <trkpt lat="51.78402" lon="4.120453">
        <ele>0.00000</ele>
        <time>2026-05-03T00:49:12Z</time>
      </trkpt>
      <trkpt lat="51.78402" lon="4.120453">
        <ele>0.00000</ele>
        <time>2026-05-03T00:49:12Z</time>
      </trkpt>
      <trkpt lat="51.785541" lon="4.118274">
        <ele>0.00000</ele>
        <time>2026-05-03T00:49:19Z</time>
      </trkpt>
      <trkpt lat="51.785788" lon="4.117789">
        <ele>0.00000</ele>
        <time>2026-05-03T00:49:20Z</time>
      </trkpt>
      <trkpt lat="51.785828" lon="4.117554">
        <ele>0.00000</ele>
        <time>2026-05-03T00:49:21Z</time>
      </trkpt>
      <trkpt lat="51.785808" lon="4.117448">
        <ele>0.00000</ele>
        <time>2026-05-03T00:49:21Z</time>
      </trkpt>
      <trkpt lat="51.785666" lon="4.117152">
        <ele>0.00000</ele>
        <time>2026-05-03T00:49:22Z</time>
      </trkpt>
      <trkpt lat="51.785314" lon="4.11658">
        <ele>0.00000</ele>
        <time>2026-05-03T00:49:24Z</time>
      </trkpt>
      <trkpt lat="51.785112" lon="4.116329">
        <ele>0.00000</ele>
        <time>2026-05-03T00:49:25Z</time>
      </trkpt>
      <trkpt lat="51.784685" lon="4.115907">
        <ele>0.00000</ele>
        <time>2026-05-03T00:49:27Z</time>
      </trkpt>
      <trkpt lat="51.784452" lon="4.115726">
        <ele>0.00000</ele>
        <time>2026-05-03T00:49:28Z</time>
      </trkpt>
      <trkpt lat="51.783099" lon="4.114924">
        <ele>0.00000</ele>
        <time>2026-05-03T00:49:33Z</time>
      </trkpt>
      <trkpt lat="51.783181" lon="4.114595">
        <ele>0.00000</ele>
        <time>2026-05-03T00:49:34Z</time>
      </trkpt>
      <trkpt lat="51.783181" lon="4.114595">
        <ele>0.00000</ele>
        <time>2026-05-03T00:49:34Z</time>
      </trkpt>
      <trkpt lat="51.783241" lon="4.114351">
        <ele>0.00000</ele>
        <time>2026-05-03T00:49:34Z</time>
      </trkpt>
      <trkpt lat="51.783407" lon="4.114372">
        <ele>0.00000</ele>
        <time>2026-05-03T00:49:35Z</time>
      </trkpt>
      <trkpt lat="51.783587" lon="4.114324">
        <ele>0.00000</ele>
        <time>2026-05-03T00:49:36Z</time>
      </trkpt>
      <trkpt lat="51.783753" lon="4.114394">
        <ele>0.00000</ele>
        <time>2026-05-03T00:49:36Z</time>
      </trkpt>
      <trkpt lat="51.783822" lon="4.11434">
        <ele>0.00000</ele>
        <time>2026-05-03T00:49:36Z</time>
      </trkpt>
      <trkpt lat="51.784029" lon="4.113184">
        <ele>0.00000</ele>
        <time>2026-05-03T00:49:39Z</time>
      </trkpt>
      <trkpt lat="51.784045" lon="4.113192">
        <ele>0.00000</ele>
        <time>2026-05-03T00:49:39Z</time>
      </trkpt>
      <trkpt lat="51.784045" lon="4.113192">
        <ele>0.00000</ele>
        <time>2026-05-03T00:49:39Z</time>
      </trkpt>
      <trkpt lat="51.784619" lon="4.113499">
        <ele>0.00000</ele>
        <time>2026-05-03T00:49:41Z</time>
      </trkpt>
      <trkpt lat="51.784642" lon="4.113386">
        <ele>0.00000</ele>
        <time>2026-05-03T00:49:42Z</time>
      </trkpt>
      <trkpt lat="51.785868" lon="4.100317">
        <ele>0.00000</ele>
        <time>2026-05-03T00:50:12Z</time>
      </trkpt>
      <trkpt lat="51.785868" lon="4.100317">
        <ele>0.00000</ele>
        <time>2026-05-03T00:50:12Z</time>
      </trkpt>
      <trkpt lat="51.78595" lon="4.099038">
        <ele>0.00000</ele>
        <time>2026-05-03T00:50:15Z</time>
      </trkpt>
      <trkpt lat="51.785818" lon="4.097747">
        <ele>0.00000</ele>
        <time>2026-05-03T00:50:18Z</time>
      </trkpt>
      <trkpt lat="51.782852" lon="4.08203">
        <ele>0.00000</ele>
        <time>2026-05-03T00:50:55Z</time>
      </trkpt>
      <trkpt lat="51.784098" lon="4.081432">
        <ele>0.00000</ele>
        <time>2026-05-03T00:51:00Z</time>
      </trkpt>
      <trkpt lat="51.784291" lon="4.081143">
        <ele>0.00000</ele>
        <time>2026-05-03T00:51:01Z</time>
      </trkpt>
      <trkpt lat="51.788268" lon="4.065958">
        <ele>0.00000</ele>
        <time>2026-05-03T00:51:38Z</time>
      </trkpt>
      <trkpt lat="51.788268" lon="4.065958">
        <ele>0.00000</ele>
        <time>2026-05-03T00:51:38Z</time>
      </trkpt>
      <trkpt lat="51.78895" lon="4.063408">
        <ele>0.00000</ele>
        <time>2026-05-03T00:51:44Z</time>
      </trkpt>
      <trkpt lat="51.789136" lon="4.063193">
        <ele>0.00000</ele>
        <time>2026-05-03T00:51:45Z</time>
      </trkpt>
      <trkpt lat="51.802071" lon="4.053475">
        <ele>0.00000</ele>
        <time>2026-05-03T00:52:37Z</time>
      </trkpt>
      <trkpt lat="51.800942" lon="4.045631">
        <ele>0.00000</ele>
        <time>2026-05-03T00:52:56Z</time>
      </trkpt>
      <trkpt lat="51.800942" lon="4.045631">
        <ele>0.00000</ele>
        <time>2026-05-03T00:52:56Z</time>
      </trkpt>
      <trkpt lat="51.800671" lon="4.043758">
        <ele>0.00000</ele>
        <time>2026-05-03T00:53:00Z</time>
      </trkpt>
      <trkpt lat="51.800511" lon="4.04319">
        <ele>0.00000</ele>
        <time>2026-05-03T00:53:01Z</time>
      </trkpt>
      <trkpt lat="51.800491" lon="4.042911">
        <ele>0.00000</ele>
        <time>2026-05-03T00:53:02Z</time>
      </trkpt>
      <trkpt lat="51.801623" lon="4.033396">
        <ele>0.00000</ele>
        <time>2026-05-03T00:53:24Z</time>
      </trkpt>
      <trkpt lat="51.8016" lon="4.033184">
        <ele>0.00000</ele>
        <time>2026-05-03T00:53:24Z</time>
      </trkpt>
      <trkpt lat="51.804848" lon="4.030457">
        <ele>0.00000</ele>
        <time>2026-05-03T00:53:38Z</time>
      </trkpt>
      <trkpt lat="51.804937" lon="4.030415">
        <ele>0.00000</ele>
        <time>2026-05-03T00:53:38Z</time>
      </trkpt>
      <trkpt lat="51.805184" lon="4.030848">
        <ele>0.00000</ele>
        <time>2026-05-03T00:53:39Z</time>
      </trkpt>
      <trkpt lat="51.80558" lon="4.031079">
        <ele>0.00000</ele>
        <time>2026-05-03T00:53:41Z</time>
      </trkpt>
      <trkpt lat="51.80558" lon="4.031079">
        <ele>0.00000</ele>
        <time>2026-05-03T00:53:41Z</time>
      </trkpt>
      <trkpt lat="51.805721" lon="4.031145">
        <ele>0.00000</ele>
        <time>2026-05-03T00:53:42Z</time>
      </trkpt>
      <trkpt lat="51.805949" lon="4.03107">
        <ele>0.00000</ele>
        <time>2026-05-03T00:53:42Z</time>
      </trkpt>
      <trkpt lat="51.806171" lon="4.030903">
        <ele>0.00000</ele>
        <time>2026-05-03T00:53:43Z</time>
      </trkpt>
      <trkpt lat="51.806192" lon="4.03066">
        <ele>0.00000</ele>
        <time>2026-05-03T00:53:44Z</time>
      </trkpt>
      <trkpt lat="51.806263" lon="4.030602">
        <ele>0.00000</ele>
        <time>2026-05-03T00:53:44Z</time>
      </trkpt>
      <trkpt lat="51.806325" lon="4.030616">
        <ele>0.00000</ele>
        <time>2026-05-03T00:53:44Z</time>
      </trkpt>
      <trkpt lat="51.806378" lon="4.030688">
        <ele>0.00000</ele>
        <time>2026-05-03T00:53:45Z</time>
      </trkpt>
      <trkpt lat="51.806417" lon="4.03066">
        <ele>0.00000</ele>
        <time>2026-05-03T00:53:45Z</time>
      </trkpt>
      <trkpt lat="51.809109" lon="4.028484">
        <ele>0.00000</ele>
        <time>2026-05-03T00:53:56Z</time>
      </trkpt>
      <trkpt lat="51.809109" lon="4.028484">
        <ele>0.00000</ele>
        <time>2026-05-03T00:53:56Z</time>
      </trkpt>
      <trkpt lat="51.809698" lon="4.028819">
        <ele>0.00000</ele>
        <time>2026-05-03T00:53:58Z</time>
      </trkpt>
      <trkpt lat="51.811185" lon="4.02924">
        <ele>0.00000</ele>
        <time>2026-05-03T00:54:04Z</time>
      </trkpt>
      <trkpt lat="51.814142" lon="4.029613">
        <ele>0.00000</ele>
        <time>2026-05-03T00:54:14Z</time>
      </trkpt>
      <trkpt lat="51.814733" lon="4.029366">
        <ele>0.00000</ele>
        <time>2026-05-03T00:54:17Z</time>
      </trkpt>
      <trkpt lat="51.81563" lon="4.028128">
        <ele>0.00000</ele>
        <time>2026-05-03T00:54:21Z</time>
      </trkpt>
      <trkpt lat="51.815988" lon="4.028065">
        <ele>0.00000</ele>
        <time>2026-05-03T00:54:22Z</time>
      </trkpt>
      <trkpt lat="51.816223" lon="4.028204">
        <ele>0.00000</ele>
        <time>2026-05-03T00:54:23Z</time>
      </trkpt>
      <trkpt lat="51.819505" lon="4.032701">
        <ele>0.00000</ele>
        <time>2026-05-03T00:54:39Z</time>
      </trkpt>
      <trkpt lat="51.820005" lon="4.03416">
        <ele>0.00000</ele>
        <time>2026-05-03T00:54:43Z</time>
      </trkpt>
      <trkpt lat="51.820736" lon="4.037273">
        <ele>0.00000</ele>
        <time>2026-05-03T00:54:50Z</time>
      </trkpt>
      <trkpt lat="51.82096" lon="4.037278">
        <ele>0.00000</ele>
        <time>2026-05-03T00:54:51Z</time>
      </trkpt>
      <trkpt lat="51.824385" lon="4.041812">
        <ele>0.00000</ele>
        <time>2026-05-03T00:55:07Z</time>
      </trkpt>
      <trkpt lat="51.824604" lon="4.041951">
        <ele>0.00000</ele>
        <time>2026-05-03T00:55:08Z</time>
      </trkpt>
      <trkpt lat="51.824723" lon="4.041624">
        <ele>0.00000</ele>
        <time>2026-05-03T00:55:09Z</time>
      </trkpt>
      <trkpt lat="51.824952" lon="4.041854">
        <ele>0.00000</ele>
        <time>2026-05-03T00:55:10Z</time>
      </trkpt>
      <trkpt lat="51.824952" lon="4.041854">
        <ele>0.00000</ele>
        <time>2026-05-03T00:55:10Z</time>
      </trkpt>
      <trkpt lat="51.828403" lon="4.044132">
        <ele>0.00000</ele>
        <time>2026-05-03T00:55:24Z</time>
      </trkpt>
      <trkpt lat="51.837481" lon="4.056434">
        <ele>0.00000</ele>
        <time>2026-05-03T00:56:07Z</time>
      </trkpt>
      <trkpt lat="51.839945" lon="4.060983">
        <ele>0.00000</ele>
        <time>2026-05-03T00:56:21Z</time>
      </trkpt>
      <trkpt lat="51.841648" lon="4.064909">
        <ele>0.00000</ele>
        <time>2026-05-03T00:56:32Z</time>
      </trkpt>
      <trkpt lat="51.842976" lon="4.068823">
        <ele>0.00000</ele>
        <time>2026-05-03T00:56:42Z</time>
      </trkpt>
      <trkpt lat="51.844315" lon="4.074254">
        <ele>0.00000</ele>
        <time>2026-05-03T00:56:55Z</time>
      </trkpt>
      <trkpt lat="51.844315" lon="4.074254">
        <ele>0.00000</ele>
        <time>2026-05-03T00:56:55Z</time>
      </trkpt>
      <trkpt lat="51.844529" lon="4.075276">
        <ele>0.00000</ele>
        <time>2026-05-03T00:56:57Z</time>
      </trkpt>
      <trkpt lat="51.844774" lon="4.077473">
        <ele>0.00000</ele>
        <time>2026-05-03T00:57:02Z</time>
      </trkpt>
      <trkpt lat="51.845251" lon="4.079294">
        <ele>0.00000</ele>
        <time>2026-05-03T00:57:07Z</time>
      </trkpt>
      <trkpt lat="51.845551" lon="4.081299">
        <ele>0.00000</ele>
        <time>2026-05-03T00:57:12Z</time>
      </trkpt>
      <trkpt lat="51.846568" lon="4.08405">
        <ele>0.00000</ele>
        <time>2026-05-03T00:57:19Z</time>
      </trkpt>
      <trkpt lat="51.846673" lon="4.085027">
        <ele>0.00000</ele>
        <time>2026-05-03T00:57:21Z</time>
      </trkpt>
      <trkpt lat="51.846377" lon="4.086996">
        <ele>0.00000</ele>
        <time>2026-05-03T00:57:26Z</time>
      </trkpt>
      <trkpt lat="51.846645" lon="4.087287">
        <ele>0.00000</ele>
        <time>2026-05-03T00:57:27Z</time>
      </trkpt>
      <trkpt lat="51.847258" lon="4.090996">
        <ele>0.00000</ele>
        <time>2026-05-03T00:57:36Z</time>
      </trkpt>
      <trkpt lat="51.848089" lon="4.094702">
        <ele>0.00000</ele>
        <time>2026-05-03T00:57:44Z</time>
      </trkpt>
      <trkpt lat="51.849257" lon="4.094149">
        <ele>0.00000</ele>
        <time>2026-05-03T00:57:49Z</time>
      </trkpt>
      <trkpt lat="51.850312" lon="4.094257">
        <ele>0.00000</ele>
        <time>2026-05-03T00:57:53Z</time>
      </trkpt>
      <trkpt lat="51.851413" lon="4.097019">
        <ele>0.00000</ele>
        <time>2026-05-03T00:58:00Z</time>
      </trkpt>
      <trkpt lat="51.851413" lon="4.097019">
        <ele>0.00000</ele>
        <time>2026-05-03T00:58:00Z</time>
      </trkpt>
      <trkpt lat="51.8523" lon="4.0996">
        <ele>0.00000</ele>
        <time>2026-05-03T00:58:07Z</time>
      </trkpt>
      <trkpt lat="51.853669" lon="4.104286">
        <ele>0.00000</ele>
        <time>2026-05-03T00:58:19Z</time>
      </trkpt>
      <trkpt lat="51.854891" lon="4.109522">
        <ele>0.00000</ele>
        <time>2026-05-03T00:58:31Z</time>
      </trkpt>
      <trkpt lat="51.854974" lon="4.110339">
        <ele>0.00000</ele>
        <time>2026-05-03T00:58:33Z</time>
      </trkpt>
      <trkpt lat="51.854825" lon="4.110881">
        <ele>0.00000</ele>
        <time>2026-05-03T00:58:35Z</time>
      </trkpt>
      <trkpt lat="51.855" lon="4.1112">
        <ele>0.00000</ele>
        <time>2026-05-03T00:58:35Z</time>
      </trkpt>
      <trkpt lat="51.855508" lon="4.113977">
        <ele>0.00000</ele>
        <time>2026-05-03T00:58:42Z</time>
      </trkpt>
      <trkpt lat="51.856021" lon="4.115427">
        <ele>0.00000</ele>
        <time>2026-05-03T00:58:46Z</time>
      </trkpt>
      <trkpt lat="51.856672" lon="4.119319">
        <ele>0.00000</ele>
        <time>2026-05-03T00:58:55Z</time>
      </trkpt>
      <trkpt lat="51.856619" lon="4.119847">
        <ele>0.00000</ele>
        <time>2026-05-03T00:58:56Z</time>
      </trkpt>
      <trkpt lat="51.855502" lon="4.120117">
        <ele>0.00000</ele>
        <time>2026-05-03T00:59:00Z</time>
      </trkpt>
      <trkpt lat="51.85517" lon="4.120401">
        <ele>0.00000</ele>
        <time>2026-05-03T00:59:02Z</time>
      </trkpt>
      <trkpt lat="51.854965" lon="4.12094">
        <ele>0.00000</ele>
        <time>2026-05-03T00:59:03Z</time>
      </trkpt>
      <trkpt lat="51.853413" lon="4.131418">
        <ele>0.00000</ele>
        <time>2026-05-03T00:59:27Z</time>
      </trkpt>
      <trkpt lat="51.853413" lon="4.131418">
        <ele>0.00000</ele>
        <time>2026-05-03T00:59:27Z</time>
      </trkpt>
      <trkpt lat="51.853077" lon="4.132856">
        <ele>0.00000</ele>
        <time>2026-05-03T00:59:31Z</time>
      </trkpt>
      <trkpt lat="51.852569" lon="4.133438">
        <ele>0.00000</ele>
        <time>2026-05-03T00:59:33Z</time>
      </trkpt>
      <trkpt lat="51.850113" lon="4.134175">
        <ele>0.00000</ele>
        <time>2026-05-03T00:59:42Z</time>
      </trkpt>
      <trkpt lat="51.849749" lon="4.134403">
        <ele>0.00000</ele>
        <time>2026-05-03T00:59:44Z</time>
      </trkpt>
      <trkpt lat="51.849506" lon="4.13468">
        <ele>0.00000</ele>
        <time>2026-05-03T00:59:45Z</time>
      </trkpt>
      <trkpt lat="51.849009" lon="4.135599">
        <ele>0.00000</ele>
        <time>2026-05-03T00:59:48Z</time>
      </trkpt>
      <trkpt lat="51.848868" lon="4.136104">
        <ele>0.00000</ele>
        <time>2026-05-03T00:59:49Z</time>
      </trkpt>
      <trkpt lat="51.848813" lon="4.136475">
        <ele>0.00000</ele>
        <time>2026-05-03T00:59:50Z</time>
      </trkpt>
      <trkpt lat="51.848716" lon="4.138696">
        <ele>0.00000</ele>
        <time>2026-05-03T00:59:55Z</time>
      </trkpt>
      <trkpt lat="51.848785" lon="4.138963">
        <ele>0.00000</ele>
        <time>2026-05-03T00:59:55Z</time>
      </trkpt>
      <trkpt lat="51.8490009" lon="4.1391928">
        <ele>0.00000</ele>
        <time>2026-05-03T00:59:56Z</time>
      </trkpt>
    </trkseg>
  </trk>
</gpx>

